Observation data for Menard on 08/14/2020      Previous  Date  Next       Current Mesonet Observations  Soil Data  Daily Summary Page  Observations in Plain Language
KMD1 140500Z 19002KT 29/14 A2997 RMK A01 T02850144  RH  042%=      5-min Rain = 0
KMD1 140501Z 18002KT 29/14 A2997 RMK A01 T02850144  RH  042%=      5-min Rain = 0
KMD1 140502Z 17002KT 29/14 A2997 RMK A01 T02850144  RH  042%=      5-min Rain = 0
KMD1 140503Z 16002KT 29/14 A2997 RMK A01 T02850144  RH  042%=      5-min Rain = 0
KMD1 140504Z 17001KT 28/14 A2998 RMK A01 T02840144  RH  042%=      5-min Rain = 0
KMD1 140505Z 16002KT 28/14 A2998 RMK A01 T02840144  RH  042%=      5-min Rain = 0
KMD1 140506Z 16002KT 28/14 A2998 RMK A01 T02830143  RH  042%=      5-min Rain = 0
KMD1 140507Z 16003KT 28/14 A2998 RMK A01 T02820143  RH  042%=      5-min Rain = 0
KMD1 140508Z 17004KT 28/14 A2998 RMK A01 T02820143  RH  043%=      5-min Rain = 0
KMD1 140509Z 17004KT 28/14 A2998 RMK A01 T02810143  RH  043%=      5-min Rain = 0
KMD1 140510Z 17005KT 28/15 A2998 RMK A01 T02810145  RH  043%=      5-min Rain = 0
KMD1 140511Z 18003KT 28/15 A2998 RMK A01 T02820145  RH  043%=      5-min Rain = 0
KMD1 140512Z 18005KT 28/15 A2998 RMK A01 T02830145  RH  043%=      5-min Rain = 0
KMD1 140513Z 18005KT 28/15 A2998 RMK A01 T02840146  RH  043%=      5-min Rain = 0
KMD1 140514Z 18005KT 29/15 A2998 RMK A01 T02850146  RH  043%=      5-min Rain = 0
KMD1 140515Z 19004KT 29/15 A2997 RMK A01 T02860146  RH  042%=      5-min Rain = 0
KMD1 140516Z 19003KT 29/15 A2997 RMK A01 T02860146  RH  043%=      5-min Rain = 0
KMD1 140517Z 20002KT 29/15 A2997 RMK A01 T02860147  RH  043%=      5-min Rain = 0
KMD1 140518Z 19003KT 29/15 A2997 RMK A01 T02860147  RH  043%=      5-min Rain = 0
KMD1 140519Z 20003KT 29/15 A2997 RMK A01 T02850147  RH  043%=      5-min Rain = 0
KMD1 140520Z 21002KT 29/15 A2997 RMK A01 T02850148  RH  043%=      5-min Rain = 0
KMD1 140521Z 20003KT 29/15 A2997 RMK A01 T02850147  RH  043%=      5-min Rain = 0
KMD1 140522Z 22002KT 29/15 A2998 RMK A01 T02850147  RH  043%=      5-min Rain = 0
KMD1 140523Z 24002KT 28/15 A2998 RMK A01 T02840146  RH  043%=      5-min Rain = 0
KMD1 140524Z 25002KT 28/15 A2998 RMK A01 T02840146  RH  043%=      5-min Rain = 0
KMD1 140525Z 25002KT 28/15 A2998 RMK A01 T02830145  RH  043%=      5-min Rain = 0
KMD1 140526Z 26003KT 28/15 A2998 RMK A01 T02830145  RH  043%=      5-min Rain = 0
KMD1 140527Z 24002KT 28/14 A2998 RMK A01 T02820144  RH  043%=      5-min Rain = 0
KMD1 140528Z 25002KT 28/14 A2998 RMK A01 T02810143  RH  043%=      5-min Rain = 0
KMD1 140529Z 25003KT 28/14 A2998 RMK A01 T02790143  RH  043%=      5-min Rain = 0
KMD1 140530Z 24002KT 28/14 A2998 RMK A01 T02790144  RH  044%=      5-min Rain = 0
KMD1 140531Z 25002KT 28/14 A2998 RMK A01 T02790144  RH  044%=      5-min Rain = 0
KMD1 140532Z 24002KT 28/14 A2998 RMK A01 T02780143  RH  044%=      5-min Rain = 0
KMD1 140533Z 24002KT 28/14 A2998 RMK A01 T02770144  RH  044%=      5-min Rain = 0
KMD1 140534Z 23002KT 28/14 A2998 RMK A01 T02770144  RH  044%=      5-min Rain = 0
KMD1 140535Z 24002KT 28/14 A2998 RMK A01 T02760144  RH  044%=      5-min Rain = 0
KMD1 140536Z 24002KT 28/14 A2998 RMK A01 T02760144  RH  044%=      5-min Rain = 0
KMD1 140537Z 24003KT 28/14 A2998 RMK A01 T02750144  RH  045%=      5-min Rain = 0
KMD1 140538Z 23003KT 27/14 A2998 RMK A01 T02740144  RH  045%=      5-min Rain = 0
KMD1 140539Z 24002KT 27/14 A2998 RMK A01 T02740144  RH  045%=      5-min Rain = 0
KMD1 140540Z 24003KT 27/14 A2998 RMK A01 T02730144  RH  045%=      5-min Rain = 0
KMD1 140541Z 23003KT 27/14 A2998 RMK A01 T02730144  RH  045%=      5-min Rain = 0
KMD1 140542Z 24002KT 27/15 A2998 RMK A01 T02730145  RH  045%=      5-min Rain = 0
KMD1 140543Z 23002KT 27/15 A2998 RMK A01 T02730145  RH  046%=      5-min Rain = 0
KMD1 140544Z 24002KT 27/15 A2998 RMK A01 T02730145  RH  045%=      5-min Rain = 0
KMD1 140545Z 24002KT 27/14 A2998 RMK A01 T02720144  RH  045%=      5-min Rain = 0
KMD1 140546Z 23003KT 27/14 A2998 RMK A01 T02710144  RH  046%=      5-min Rain = 0
KMD1 140547Z 23003KT 27/14 A2998 RMK A01 T02710144  RH  046%=      5-min Rain = 0
KMD1 140548Z 23003KT 27/14 A2998 RMK A01 T02700144  RH  046%=      5-min Rain = 0
KMD1 140549Z 23003KT 27/15 A2998 RMK A01 T02700145  RH  046%=      5-min Rain = 0
KMD1 140550Z 22003KT 27/15 A2998 RMK A01 T02700145  RH  046%=      5-min Rain = 0
KMD1 140551Z 23003KT 27/14 A2998 RMK A01 T02700144  RH  046%=      5-min Rain = 0
KMD1 140552Z 22003KT 27/14 A2998 RMK A01 T02700144  RH  046%=      5-min Rain = 0
KMD1 140553Z 23002KT 27/15 A2998 RMK A01 T02700145  RH  046%=      5-min Rain = 0
KMD1 140554Z 21002KT 27/15 A2998 RMK A01 T02700145  RH  046%=      5-min Rain = 0
KMD1 140555Z 22002KT 27/15 A2998 RMK A01 T02700145  RH  046%=      5-min Rain = 0
KMD1 140556Z 22002KT 27/15 A2998 RMK A01 T02700145  RH  046%=      5-min Rain = 0
KMD1 140557Z 22002KT 27/15 A2998 RMK A01 T02700145  RH  046%=      5-min Rain = 0
KMD1 140558Z 22002KT 27/15 A2998 RMK A01 T02700146  RH  046%=      5-min Rain = 0
KMD1 140559Z 23003KT 27/15 A2998 RMK A01 T02710146  RH  046%=      5-min Rain = 0
KMD1 140600Z 23002KT 27/15 A2998 RMK A01 T02700146  RH  046%=      5-min Rain = 0
KMD1 140601Z 23002KT 27/15 A2998 RMK A01 T02710145  RH  046%=      5-min Rain = 0
KMD1 140602Z 23003KT 27/15 A2998 RMK A01 T02700145  RH  046%=      5-min Rain = 0
KMD1 140603Z 22002KT 27/15 A2998 RMK A01 T02700145  RH  046%=      5-min Rain = 0
KMD1 140604Z 22003KT 27/15 A2998 RMK A01 T02690145  RH  046%=      5-min Rain = 0
KMD1 140605Z 21002KT 27/15 A2998 RMK A01 T02700146  RH  047%=      5-min Rain = 0
KMD1 140606Z 20003KT 27/15 A2998 RMK A01 T02690146  RH  047%=      5-min Rain = 0
KMD1 140607Z 21003KT 27/15 A2998 RMK A01 T02700146  RH  047%=      5-min Rain = 0
KMD1 140608Z 22003KT 27/15 A2998 RMK A01 T02700146  RH  047%=      5-min Rain = 0
KMD1 140609Z 22002KT 27/15 A2998 RMK A01 T02700146  RH  047%=      5-min Rain = 0
KMD1 140610Z 22003KT 27/15 A2998 RMK A01 T02700147  RH  047%=      5-min Rain = 0
KMD1 140611Z 22002KT 27/15 A2998 RMK A01 T02690146  RH  047%=      5-min Rain = 0
KMD1 140612Z 23002KT 27/15 A2998 RMK A01 T02690145  RH  047%=      5-min Rain = 0
KMD1 140613Z 23002KT 27/15 A2998 RMK A01 T02690146  RH  047%=      5-min Rain = 0
KMD1 140614Z 23002KT 27/15 A2998 RMK A01 T02680145  RH  047%=      5-min Rain = 0
KMD1 140615Z 23002KT 27/15 A2998 RMK A01 T02680146  RH  047%=      5-min Rain = 0
KMD1 140616Z 24002KT 27/15 A2998 RMK A01 T02680146  RH  047%=      5-min Rain = 0
KMD1 140617Z 24002KT 27/15 A2998 RMK A01 T02680146  RH  047%=      5-min Rain = 0
KMD1 140618Z 24002KT 27/15 A2998 RMK A01 T02680146  RH  047%=      5-min Rain = 0
KMD1 140619Z 25002KT 27/15 A2998 RMK A01 T02680146  RH  047%=      5-min Rain = 0
KMD1 140620Z 24002KT 27/15 A2998 RMK A01 T02680146  RH  047%=      5-min Rain = 0
KMD1 140621Z 25002KT 27/15 A2998 RMK A01 T02680146  RH  047%=      5-min Rain = 0
KMD1 140622Z 24002KT 27/15 A2998 RMK A01 T02680145  RH  047%=      5-min Rain = 0
KMD1 140623Z 24002KT 27/15 A2998 RMK A01 T02680145  RH  047%=      5-min Rain = 0
KMD1 140624Z 25002KT 27/15 A2998 RMK A01 T02680145  RH  047%=      5-min Rain = 0
KMD1 140625Z 24001KT 27/15 A2998 RMK A01 T02680145  RH  047%=      5-min Rain = 0
KMD1 140626Z 24001KT 27/15 A2998 RMK A01 T02670145  RH  047%=      5-min Rain = 0
KMD1 140627Z 23001KT 27/15 A2998 RMK A01 T02670146  RH  047%=      5-min Rain = 0
KMD1 140628Z 23002KT 27/15 A2998 RMK A01 T02670146  RH  047%=      5-min Rain = 0
KMD1 140629Z 24002KT 27/15 A2998 RMK A01 T02670146  RH  047%=      5-min Rain = 0
KMD1 140630Z 23001KT 27/15 A2998 RMK A01 T02670145  RH  047%=      5-min Rain = 0
KMD1 140631Z 25001KT 27/15 A2998 RMK A01 T02660145  RH  047%=      5-min Rain = 0
KMD1 140632Z 24002KT 27/15 A2998 RMK A01 T02660146  RH  047%=      5-min Rain = 0
KMD1 140633Z 24001KT 27/15 A2998 RMK A01 T02660145  RH  047%=      5-min Rain = 0
KMD1 140634Z 25001KT 27/15 A2998 RMK A01 T02650145  RH  048%=      5-min Rain = 0
KMD1 140635Z 25001KT 26/15 A2998 RMK A01 T02640145  RH  048%=      5-min Rain = 0
KMD1 140636Z 26001KT 26/15 A2998 RMK A01 T02640145  RH  048%=      5-min Rain = 0
KMD1 140637Z 28001KT 26/15 A2998 RMK A01 T02630145  RH  048%=      5-min Rain = 0
KMD1 140638Z 29001KT 26/15 A2998 RMK A01 T02620145  RH  048%=      5-min Rain = 0
KMD1 140639Z 28001KT 26/14 A2998 RMK A01 T02590143  RH  049%=      5-min Rain = 0
KMD1 140640Z 29001KT 26/14 A2998 RMK A01 T02570144  RH  049%=      5-min Rain = 0
KMD1 140641Z 28002KT 26/14 A2998 RMK A01 T02570144  RH  050%=      5-min Rain = 0
KMD1 140642Z 29001KT 26/15 A2998 RMK A01 T02570145  RH  050%=      5-min Rain = 0
KMD1 140643Z 31001KT 26/15 A2998 RMK A01 T02570145  RH  050%=      5-min Rain = 0
KMD1 140644Z 29001KT 26/15 A2998 RMK A01 T02560145  RH  050%=      5-min Rain = 0
KMD1 140645Z 29001KT 26/15 A2998 RMK A01 T02560145  RH  050%=      5-min Rain = 0
KMD1 140646Z 29000KT 26/14 A2998 RMK A01 T02560144  RH  050%=      5-min Rain = 0
KMD1 140647Z 27000KT 26/15 A2998 RMK A01 T02560145  RH  050%=      5-min Rain = 0
KMD1 140648Z 28000KT 26/15 A2998 RMK A01 T02560145  RH  050%=      5-min Rain = 0
KMD1 140649Z 25000KT 26/15 A2998 RMK A01 T02580146  RH  050%=      5-min Rain = 0
KMD1 140650Z 00000KT 26/15 A2998 RMK A01 T02580145  RH  049%=      5-min Rain = 0
KMD1 140651Z 00000KT 26/14 A2998 RMK A01 T02560143  RH  050%=      5-min Rain = 0
KMD1 140652Z 00000KT 25/14 A2998 RMK A01 T02540143  RH  050%=      5-min Rain = 0
KMD1 140653Z 00000KT 25/14 A2998 RMK A01 T02530143  RH  050%=      5-min Rain = 0
KMD1 140654Z 19000KT 25/14 A2998 RMK A01 T02510142  RH  051%=      5-min Rain = 0
KMD1 140655Z 00000KT 25/14 A2998 RMK A01 T02510143  RH  051%=      5-min Rain = 0
KMD1 140656Z 07000KT 25/14 A2998 RMK A01 T02500142  RH  051%=      5-min Rain = 0
KMD1 140657Z 15001KT 25/14 A2998 RMK A01 T02490143  RH  052%=      5-min Rain = 0
KMD1 140658Z 00000KT 25/14 A2998 RMK A01 T02490143  RH  052%=      5-min Rain = 0
KMD1 140659Z 00000KT 25/14 A2998 RMK A01 T02500144  RH  052%=      5-min Rain = 0
KMD1 140700Z 00000KT 25/14 A2998 RMK A01 T02500144  RH  052%=      5-min Rain = 0
KMD1 140701Z 00000KT 25/14 A2998 RMK A01 T02500144  RH  052%=      5-min Rain = 0
KMD1 140702Z 31001KT 25/14 A2998 RMK A01 T02500144  RH  051%=      5-min Rain = 0
KMD1 140703Z 32001KT 25/15 A2998 RMK A01 T02500145  RH  052%=      5-min Rain = 0
KMD1 140704Z 32001KT 25/15 A2998 RMK A01 T02500145  RH  052%=      5-min Rain = 0
KMD1 140705Z 34001KT 25/15 A2998 RMK A01 T02510145  RH  052%=      5-min Rain = 0
KMD1 140706Z 30001KT 25/14 A2998 RMK A01 T02510144  RH  051%=      5-min Rain = 0
KMD1 140707Z 20001KT 25/15 A2998 RMK A01 T02520146  RH  052%=      5-min Rain = 0
KMD1 140708Z 20000KT 25/15 A2998 RMK A01 T02530147  RH  052%=      5-min Rain = 0
KMD1 140709Z 18000KT 26/15 A2998 RMK A01 T02550147  RH  051%=      5-min Rain = 0
KMD1 140710Z 16001KT 26/15 A2998 RMK A01 T02570147  RH  051%=      5-min Rain = 0
KMD1 140711Z 20001KT 26/15 A2998 RMK A01 T02570146  RH  050%=      5-min Rain = 0
KMD1 140712Z 23001KT 26/15 A2998 RMK A01 T02570146  RH  050%=      5-min Rain = 0
KMD1 140713Z 20002KT 26/15 A2998 RMK A01 T02580148  RH  051%=      5-min Rain = 0
KMD1 140714Z 19002KT 26/15 A2998 RMK A01 T02590148  RH  050%=      5-min Rain = 0
KMD1 140715Z 20001KT 26/15 A2998 RMK A01 T02610148  RH  050%=      5-min Rain = 0
KMD1 140716Z 21002KT 26/15 A2998 RMK A01 T02620148  RH  049%=      5-min Rain = 0
KMD1 140717Z 22002KT 26/15 A2998 RMK A01 T02620148  RH  049%=      5-min Rain = 0
KMD1 140718Z 22002KT 26/15 A2998 RMK A01 T02630148  RH  049%=      5-min Rain = 0
KMD1 140719Z 22002KT 26/15 A2998 RMK A01 T02630148  RH  049%=      5-min Rain = 0
KMD1 140720Z 21002KT 26/15 A2998 RMK A01 T02630149  RH  049%=      5-min Rain = 0
KMD1 140721Z 21002KT 26/15 A2998 RMK A01 T02640149  RH  049%=      5-min Rain = 0
KMD1 140722Z 20002KT 26/15 A2998 RMK A01 T02640149  RH  049%=      5-min Rain = 0
KMD1 140723Z 22002KT 27/15 A2998 RMK A01 T02650149  RH  049%=      5-min Rain = 0
KMD1 140724Z 20002KT 27/15 A2998 RMK A01 T02650149  RH  049%=      5-min Rain = 0
KMD1 140725Z 21003KT 27/15 A2998 RMK A01 T02650149  RH  049%=      5-min Rain = 0
KMD1 140726Z 19002KT 27/15 A2998 RMK A01 T02660150  RH  049%=      5-min Rain = 0
KMD1 140727Z 20002KT 27/15 A2998 RMK A01 T02660150  RH  049%=      5-min Rain = 0
KMD1 140728Z 21001KT 27/15 A2998 RMK A01 T02660150  RH  049%=      5-min Rain = 0
KMD1 140729Z 20002KT 27/15 A2998 RMK A01 T02660150  RH  049%=      5-min Rain = 0
KMD1 140730Z 19003KT 27/15 A2998 RMK A01 T02660150  RH  049%=      5-min Rain = 0
KMD1 140731Z 20003KT 27/15 A2998 RMK A01 T02660150  RH  049%=      5-min Rain = 0
KMD1 140732Z 18003KT 27/15 A2998 RMK A01 T02660150  RH  049%=      5-min Rain = 0
KMD1 140733Z 18003KT 27/15 A2998 RMK A01 T02660150  RH  049%=      5-min Rain = 0
KMD1 140734Z 19003KT 27/15 A2998 RMK A01 T02660151  RH  049%=      5-min Rain = 0
KMD1 140735Z 19004KT 27/15 A2998 RMK A01 T02660152  RH  049%=      5-min Rain = 0
KMD1 140736Z 19004KT 27/15 A2998 RMK A01 T02660151  RH  049%=      5-min Rain = 0
KMD1 140737Z 18005KT 27/15 A2998 RMK A01 T02670152  RH  049%=      5-min Rain = 0
KMD1 140738Z 19004KT 27/15 A2998 RMK A01 T02680152  RH  049%=      5-min Rain = 0
KMD1 140739Z 19004KT 27/15 A2998 RMK A01 T02690152  RH  049%=      5-min Rain = 0
KMD1 140740Z 18004KT 27/15 A2998 RMK A01 T02690152  RH  049%=      5-min Rain = 0
KMD1 140741Z 18005KT 27/15 A2998 RMK A01 T02700152  RH  049%=      5-min Rain = 0
KMD1 140742Z 19005KT 27/15 A2998 RMK A01 T02690153  RH  049%=      5-min Rain = 0
KMD1 140743Z 19005KT 27/15 A2998 RMK A01 T02700153  RH  049%=      5-min Rain = 0
KMD1 140744Z 18008KT 27/15 A2998 RMK A01 T02700153  RH  049%=      5-min Rain = 0
KMD1 140745Z 19007G12KT 27/15 A2998 RMK A01 T02720153  RH  048%=      5-min Rain = 0
KMD1 140746Z 19007KT 27/15 A2998 RMK A01 T02730154  RH  048%=      5-min Rain = 0
KMD1 140747Z 19006KT 27/15 A2998 RMK A01 T02730154  RH  048%=      5-min Rain = 0
KMD1 140748Z 19007KT 27/15 A2998 RMK A01 T02740154  RH  048%=      5-min Rain = 0
KMD1 140749Z 19006KT 27/15 A2998 RMK A01 T02740154  RH  048%=      5-min Rain = 0
KMD1 140750Z 19007KT 28/16 A2998 RMK A01 T02750155  RH  048%=      5-min Rain = 0
KMD1 140751Z 19008KT 28/16 A2998 RMK A01 T02760155  RH  048%=      5-min Rain = 0
KMD1 140752Z 19007KT 28/16 A2998 RMK A01 T02760155  RH  048%=      5-min Rain = 0
KMD1 140753Z 20007G12KT 28/16 A2998 RMK A01 T02770155  RH  048%=      5-min Rain = 0
KMD1 140754Z 19006KT 28/16 A2998 RMK A01 T02760155  RH  048%=      5-min Rain = 0
KMD1 140755Z 18008KT 28/16 A2998 RMK A01 T02760156  RH  048%=      5-min Rain = 0
KMD1 140756Z 19006KT 28/16 A2998 RMK A01 T02760156  RH  048%=      5-min Rain = 0
KMD1 140757Z 18007KT 28/16 A2998 RMK A01 T02750156  RH  048%=      5-min Rain = 0
KMD1 140758Z 19008KT 28/16 A2998 RMK A01 T02750156  RH  048%=      5-min Rain = 0
KMD1 140759Z 19005KT 28/16 A2998 RMK A01 T02760156  RH  048%=      5-min Rain = 0
KMD1 140800Z 19008KT 28/16 A2998 RMK A01 T02760156  RH  048%=      5-min Rain = 0
KMD1 140801Z 19008KT 28/16 A2998 RMK A01 T02760157  RH  048%=      5-min Rain = 0
KMD1 140802Z 19007KT 28/16 A2998 RMK A01 T02760157  RH  048%=      5-min Rain = 0
KMD1 140803Z 19009KT 28/16 A2998 RMK A01 T02760157  RH  048%=      5-min Rain = 0
KMD1 140804Z 19008KT 28/16 A2997 RMK A01 T02770157  RH  048%=      5-min Rain = 0
KMD1 140805Z 19008KT 28/16 A2997 RMK A01 T02770157  RH  048%=      5-min Rain = 0
KMD1 140806Z 19007KT 28/16 A2997 RMK A01 T02770158  RH  048%=      5-min Rain = 0
KMD1 140807Z 19005KT 28/16 A2997 RMK A01 T02770158  RH  048%=      5-min Rain = 0
KMD1 140808Z 19009KT 28/16 A2997 RMK A01 T02750158  RH  049%=      5-min Rain = 0
KMD1 140809Z 19008KT 28/16 A2997 RMK A01 T02750158  RH  049%=      5-min Rain = 0
KMD1 140810Z 19008KT 28/16 A2997 RMK A01 T02760158  RH  049%=      5-min Rain = 0
KMD1 140811Z 19009KT 28/16 A2997 RMK A01 T02760158  RH  049%=      5-min Rain = 0
KMD1 140812Z 19008KT 28/16 A2997 RMK A01 T02750159  RH  049%=      5-min Rain = 0
KMD1 140813Z 19006KT 28/16 A2997 RMK A01 T02750159  RH  049%=      5-min Rain = 0
KMD1 140814Z 20008KT 28/16 A2997 RMK A01 T02750159  RH  049%=      5-min Rain = 0
KMD1 140815Z 20007KT 28/16 A2997 RMK A01 T02750159  RH  049%=      5-min Rain = 0
KMD1 140816Z 20007KT 28/16 A2997 RMK A01 T02750159  RH  049%=      5-min Rain = 0
KMD1 140817Z 19007KT 28/16 A2997 RMK A01 T02750160  RH  049%=      5-min Rain = 0
KMD1 140818Z 19007KT 28/16 A2997 RMK A01 T02750160  RH  049%=      5-min Rain = 0
KMD1 140819Z 19009KT 27/16 A2997 RMK A01 T02740160  RH  050%=      5-min Rain = 0
KMD1 140820Z 19007KT 28/16 A2997 RMK A01 T02750160  RH  049%=      5-min Rain = 0
KMD1 140821Z 20008KT 27/16 A2997 RMK A01 T02740160  RH  050%=      5-min Rain = 0
KMD1 140822Z 20006KT 28/16 A2997 RMK A01 T02750161  RH  050%=      5-min Rain = 0
KMD1 140823Z 20006KT 27/16 A2997 RMK A01 T02740160  RH  050%=      5-min Rain = 0
KMD1 140824Z 20008KT 27/16 A2997 RMK A01 T02740161  RH  050%=      5-min Rain = 0
KMD1 140825Z 19008KT 27/16 A2997 RMK A01 T02740161  RH  050%=      5-min Rain = 0
KMD1 140826Z 19008KT 27/16 A2997 RMK A01 T02740161  RH  050%=      5-min Rain = 0
KMD1 140827Z 19008KT 27/16 A2997 RMK A01 T02740161  RH  050%=      5-min Rain = 0
KMD1 140828Z 19009KT 27/16 A2997 RMK A01 T02740161  RH  050%=      5-min Rain = 0
KMD1 140829Z 19009KT 27/16 A2997 RMK A01 T02740162  RH  050%=      5-min Rain = 0
KMD1 140830Z 20009KT 27/16 A2997 RMK A01 T02740161  RH  050%=      5-min Rain = 0
KMD1 140831Z 19008KT 27/16 A2997 RMK A01 T02740162  RH  050%=      5-min Rain = 0
KMD1 140832Z 19009KT 27/16 A2997 RMK A01 T02740162  RH  050%=      5-min Rain = 0
KMD1 140833Z 20008KT 27/16 A2997 RMK A01 T02740162  RH  050%=      5-min Rain = 0
KMD1 140834Z 19010KT 27/16 A2997 RMK A01 T02740162  RH  051%=      5-min Rain = 0
KMD1 140835Z 20010KT 27/16 A2997 RMK A01 T02740162  RH  051%=      5-min Rain = 0
KMD1 140836Z 19010KT 27/16 A2997 RMK A01 T02740162  RH  051%=      5-min Rain = 0
KMD1 140837Z 20007KT 27/16 A2997 RMK A01 T02740163  RH  051%=      5-min Rain = 0
KMD1 140838Z 20007KT 27/16 A2997 RMK A01 T02740163  RH  051%=      5-min Rain = 0
KMD1 140839Z 20008KT 27/16 A2997 RMK A01 T02730163  RH  051%=      5-min Rain = 0
KMD1 140840Z 20008KT 27/16 A2997 RMK A01 T02720163  RH  051%=      5-min Rain = 0
KMD1 140841Z 20008KT 27/16 A2997 RMK A01 T02720163  RH  051%=      5-min Rain = 0
KMD1 140842Z 19007KT 27/16 A2997 RMK A01 T02720163  RH  051%=      5-min Rain = 0
KMD1 140843Z 20009KT 27/16 A2997 RMK A01 T02720163  RH  051%=      5-min Rain = 0
KMD1 140844Z 21007KT 27/16 A2997 RMK A01 T02720163  RH  051%=      5-min Rain = 0
KMD1 140845Z 20007KT 27/16 A2997 RMK A01 T02720163  RH  052%=      5-min Rain = 0
KMD1 140846Z 19008KT 27/16 A2997 RMK A01 T02720164  RH  052%=      5-min Rain = 0
KMD1 140847Z 20007KT 27/16 A2997 RMK A01 T02710164  RH  052%=      5-min Rain = 0
KMD1 140848Z 20006KT 27/16 A2997 RMK A01 T02710163  RH  052%=      5-min Rain = 0
KMD1 140849Z 21008KT 27/16 A2997 RMK A01 T02710164  RH  052%=      5-min Rain = 0
KMD1 140850Z 20009KT 27/16 A2997 RMK A01 T02710164  RH  052%=      5-min Rain = 0
KMD1 140851Z 20007KT 27/16 A2997 RMK A01 T02710164  RH  052%=      5-min Rain = 0
KMD1 140852Z 20005KT 27/16 A2997 RMK A01 T02710164  RH  052%=      5-min Rain = 0
KMD1 140853Z 20006KT 27/16 A2997 RMK A01 T02700164  RH  052%=      5-min Rain = 0
KMD1 140854Z 20009KT 27/16 A2997 RMK A01 T02700164  RH  052%=      5-min Rain = 0
KMD1 140855Z 20006KT 27/16 A2997 RMK A01 T02690164  RH  052%=      5-min Rain = 0
KMD1 140856Z 21005KT 27/16 A2997 RMK A01 T02690164  RH  052%=      5-min Rain = 0
KMD1 140857Z 20005KT 27/16 A2997 RMK A01 T02690164  RH  053%=      5-min Rain = 0
KMD1 140858Z 20007KT 27/16 A2998 RMK A01 T02680164  RH  053%=      5-min Rain = 0
KMD1 140859Z 20007G12KT 27/16 A2998 RMK A01 T02680164  RH  053%=      5-min Rain = 0
KMD1 140900Z 21007KT 27/16 A2998 RMK A01 T02680164  RH  053%=      5-min Rain = 0
KMD1 140901Z 20005KT 27/16 A2998 RMK A01 T02680164  RH  053%=      5-min Rain = 0
KMD1 140902Z 20006KT 27/16 A2998 RMK A01 T02680164  RH  053%=      5-min Rain = 0
KMD1 140903Z 21006KT 27/16 A2998 RMK A01 T02680164  RH  053%=      5-min Rain = 0
KMD1 140904Z 21006KT 27/17 A2998 RMK A01 T02680165  RH  053%=      5-min Rain = 0
KMD1 140905Z 21005KT 27/16 A2998 RMK A01 T02670164  RH  053%=      5-min Rain = 0
KMD1 140906Z 22004KT 27/16 A2998 RMK A01 T02670164  RH  053%=      5-min Rain = 0
KMD1 140907Z 22006KT 27/16 A2998 RMK A01 T02660164  RH  054%=      5-min Rain = 0
KMD1 140908Z 20007KT 27/17 A2998 RMK A01 T02660165  RH  054%=      5-min Rain = 0
KMD1 140909Z 21006KT 27/17 A2998 RMK A01 T02660165  RH  054%=      5-min Rain = 0
KMD1 140910Z 21007KT 27/17 A2998 RMK A01 T02660165  RH  054%=      5-min Rain = 0
KMD1 140911Z 21006KT 27/17 A2998 RMK A01 T02670165  RH  054%=      5-min Rain = 0
KMD1 140912Z 21006KT 27/17 A2998 RMK A01 T02670166  RH  054%=      5-min Rain = 0
KMD1 140913Z 21007KT 27/17 A2998 RMK A01 T02660165  RH  054%=      5-min Rain = 0
KMD1 140914Z 22006KT 27/17 A2998 RMK A01 T02650165  RH  054%=      5-min Rain = 0
KMD1 140915Z 21005KT 27/17 A2998 RMK A01 T02660165  RH  054%=      5-min Rain = 0
KMD1 140916Z 19007KT 27/17 A2998 RMK A01 T02650165  RH  054%=      5-min Rain = 0
KMD1 140917Z 21006KT 27/17 A2998 RMK A01 T02660166  RH  054%=      5-min Rain = 0
KMD1 140918Z 21005KT 27/17 A2998 RMK A01 T02660166  RH  054%=      5-min Rain = 0
KMD1 140919Z 20005KT 27/17 A2998 RMK A01 T02650166  RH  054%=      5-min Rain = 0
KMD1 140920Z 20007KT 27/17 A2998 RMK A01 T02650166  RH  054%=      5-min Rain = 0
KMD1 140921Z 20006KT 26/17 A2998 RMK A01 T02640166  RH  055%=      5-min Rain = 0
KMD1 140922Z 20008KT 26/17 A2998 RMK A01 T02640166  RH  055%=      5-min Rain = 0
KMD1 140923Z 20005KT 27/17 A2998 RMK A01 T02650166  RH  055%=      5-min Rain = 0
KMD1 140924Z 20006KT 27/17 A2998 RMK A01 T02650166  RH  055%=      5-min Rain = 0
KMD1 140925Z 20006KT 27/17 A2998 RMK A01 T02650167  RH  055%=      5-min Rain = 0
KMD1 140926Z 20007G12KT 26/17 A2998 RMK A01 T02640167  RH  055%=      5-min Rain = 0
KMD1 140927Z 21007KT 26/17 A2998 RMK A01 T02640167  RH  055%=      5-min Rain = 0
KMD1 140928Z 21008KT 26/17 A2998 RMK A01 T02640167  RH  055%=      5-min Rain = 0
KMD1 140929Z 21006KT 26/17 A2998 RMK A01 T02640167  RH  055%=      5-min Rain = 0
KMD1 140930Z 20007KT 26/17 A2998 RMK A01 T02640167  RH  055%=      5-min Rain = 0
KMD1 140931Z 20007KT 26/17 A2998 RMK A01 T02640167  RH  055%=      5-min Rain = 0
KMD1 140932Z 21006KT 26/17 A2998 RMK A01 T02640167  RH  055%=      5-min Rain = 0
KMD1 140933Z 21006KT 26/17 A2997 RMK A01 T02640167  RH  055%=      5-min Rain = 0
KMD1 140934Z 21005KT 26/17 A2997 RMK A01 T02640168  RH  055%=      5-min Rain = 0
KMD1 140935Z 20003KT 26/17 A2997 RMK A01 T02640167  RH  055%=      5-min Rain = 0
KMD1 140936Z 20008KT 26/17 A2997 RMK A01 T02630168  RH  056%=      5-min Rain = 0
KMD1 140937Z 20007KT 26/17 A2997 RMK A01 T02630168  RH  056%=      5-min Rain = 0
KMD1 140938Z 21006KT 26/17 A2997 RMK A01 T02630168  RH  056%=      5-min Rain = 0
KMD1 140939Z 21005KT 26/17 A2997 RMK A01 T02630168  RH  056%=      5-min Rain = 0
KMD1 140940Z 21005KT 26/17 A2997 RMK A01 T02630168  RH  056%=      5-min Rain = 0
KMD1 140941Z 20007KT 26/17 A2997 RMK A01 T02620168  RH  056%=      5-min Rain = 0
KMD1 140942Z 21006KT 26/17 A2997 RMK A01 T02610168  RH  056%=      5-min Rain = 0
KMD1 140943Z 21005KT 26/17 A2997 RMK A01 T02620168  RH  056%=      5-min Rain = 0
KMD1 140944Z 21006KT 26/17 A2997 RMK A01 T02620168  RH  056%=      5-min Rain = 0
KMD1 140945Z 20005KT 26/17 A2997 RMK A01 T02620168  RH  056%=      5-min Rain = 0
KMD1 140946Z 21005KT 26/17 A2997 RMK A01 T02620168  RH  056%=      5-min Rain = 0
KMD1 140947Z 21005KT 26/17 A2997 RMK A01 T02610168  RH  057%=      5-min Rain = 0
KMD1 140948Z 21004KT 26/17 A2997 RMK A01 T02610169  RH  057%=      5-min Rain = 0
KMD1 140949Z 20006KT 26/17 A2997 RMK A01 T02610169  RH  057%=      5-min Rain = 0
KMD1 140950Z 20006KT 26/17 A2997 RMK A01 T02600169  RH  057%=      5-min Rain = 0
KMD1 140951Z 21007KT 26/17 A2997 RMK A01 T02600169  RH  057%=      5-min Rain = 0
KMD1 140952Z 20006KT 26/17 A2997 RMK A01 T02610169  RH  057%=      5-min Rain = 0
KMD1 140953Z 21006KT 26/17 A2997 RMK A01 T02600169  RH  057%=      5-min Rain = 0
KMD1 140954Z 21005KT 26/17 A2997 RMK A01 T02600169  RH  057%=      5-min Rain = 0
KMD1 140955Z 21005KT 26/17 A2997 RMK A01 T02600169  RH  057%=      5-min Rain = 0
KMD1 140956Z 20004KT 26/17 A2997 RMK A01 T02600169  RH  057%=      5-min Rain = 0
KMD1 140957Z 21005G10KT 26/17 A2997 RMK A01 T02600169  RH  057%=      5-min Rain = 0
KMD1 140958Z 20005KT 26/17 A2997 RMK A01 T02600170  RH  058%=      5-min Rain = 0
KMD1 140959Z 20006KT 26/17 A2997 RMK A01 T02600169  RH  058%=      5-min Rain = 0
KMD1 141000Z 21006KT 26/17 A2997 RMK A01 T02600169  RH  058%=      5-min Rain = 0
KMD1 141001Z 20005KT 26/17 A2997 RMK A01 T02600169  RH  057%=      5-min Rain = 0
KMD1 141002Z 21005KT 26/17 A2997 RMK A01 T02590169  RH  057%=      5-min Rain = 0
KMD1 141003Z 21005KT 26/17 A2997 RMK A01 T02590170  RH  058%=      5-min Rain = 0
KMD1 141004Z 20004KT 26/17 A2997 RMK A01 T02590170  RH  058%=      5-min Rain = 0
KMD1 141005Z 20006KT 26/17 A2997 RMK A01 T02580170  RH  058%=      5-min Rain = 0
KMD1 141006Z 20005KT 26/17 A2997 RMK A01 T02580170  RH  058%=      5-min Rain = 0
KMD1 141007Z 20004KT 26/17 A2997 RMK A01 T02580170  RH  058%=      5-min Rain = 0
KMD1 141008Z 20005KT 26/17 A2997 RMK A01 T02580170  RH  058%=      5-min Rain = 0
KMD1 141009Z 20004KT 26/17 A2997 RMK A01 T02580170  RH  058%=      5-min Rain = 0
KMD1 141010Z 20006KT 26/17 A2997 RMK A01 T02570170  RH  059%=      5-min Rain = 0
KMD1 141011Z 20005KT 26/17 A2997 RMK A01 T02570171  RH  059%=      5-min Rain = 0
KMD1 141012Z 21004KT 26/17 A2997 RMK A01 T02570170  RH  059%=      5-min Rain = 0
KMD1 141013Z 19004KT 26/17 A2997 RMK A01 T02560170  RH  059%=      5-min Rain = 0
KMD1 141014Z 20006KT 26/17 A2997 RMK A01 T02560171  RH  059%=      5-min Rain = 0
KMD1 141015Z 19007KT 26/17 A2997 RMK A01 T02550170  RH  059%=      5-min Rain = 0
KMD1 141016Z 20006KT 26/17 A2997 RMK A01 T02560170  RH  059%=      5-min Rain = 0
KMD1 141017Z 20005KT 26/17 A2997 RMK A01 T02570170  RH  059%=      5-min Rain = 0
KMD1 141018Z 20004KT 26/17 A2997 RMK A01 T02570170  RH  059%=      5-min Rain = 0
KMD1 141019Z 21006KT 26/17 A2997 RMK A01 T02560171  RH  059%=      5-min Rain = 0
KMD1 141020Z 21005KT 26/17 A2997 RMK A01 T02560171  RH  059%=      5-min Rain = 0
KMD1 141021Z 20006KT 26/17 A2997 RMK A01 T02560171  RH  059%=      5-min Rain = 0
KMD1 141022Z 20005KT 26/17 A2997 RMK A01 T02550171  RH  060%=      5-min Rain = 0
KMD1 141023Z 21005KT 26/17 A2997 RMK A01 T02550171  RH  060%=      5-min Rain = 0
KMD1 141024Z 20006KT 26/17 A2997 RMK A01 T02550171  RH  060%=      5-min Rain = 0
KMD1 141025Z 20007KT 26/17 A2997 RMK A01 T02550172  RH  060%=      5-min Rain = 0
KMD1 141026Z 20006KT 26/17 A2997 RMK A01 T02550171  RH  060%=      5-min Rain = 0
KMD1 141027Z 21007KT 26/17 A2997 RMK A01 T02550171  RH  060%=      5-min Rain = 0
KMD1 141028Z 20005KT 26/17 A2997 RMK A01 T02550172  RH  060%=      5-min Rain = 0
KMD1 141029Z 21005KT 26/17 A2997 RMK A01 T02550171  RH  060%=      5-min Rain = 0
KMD1 141030Z 20004KT 26/17 A2997 RMK A01 T02550172  RH  060%=      5-min Rain = 0
KMD1 141031Z 20007KT 25/17 A2997 RMK A01 T02540172  RH  060%=      5-min Rain = 0
KMD1 141032Z 20005KT 25/17 A2997 RMK A01 T02540172  RH  060%=      5-min Rain = 0
KMD1 141033Z 20005KT 25/17 A2997 RMK A01 T02540172  RH  060%=      5-min Rain = 0
KMD1 141034Z 20006KT 25/17 A2997 RMK A01 T02540172  RH  060%=      5-min Rain = 0
KMD1 141035Z 20005KT 25/17 A2997 RMK A01 T02540173  RH  061%=      5-min Rain = 0
KMD1 141036Z 21005KT 25/17 A2997 RMK A01 T02540172  RH  060%=      5-min Rain = 0
KMD1 141037Z 21006KT 25/17 A2997 RMK A01 T02540173  RH  061%=      5-min Rain = 0
KMD1 141038Z 20005KT 25/17 A2997 RMK A01 T02540173  RH  061%=      5-min Rain = 0
KMD1 141039Z 20005KT 25/17 A2997 RMK A01 T02530173  RH  061%=      5-min Rain = 0
KMD1 141040Z 21006KT 25/17 A2997 RMK A01 T02530173  RH  061%=      5-min Rain = 0
KMD1 141041Z 20004KT 25/17 A2997 RMK A01 T02530173  RH  061%=      5-min Rain = 0
KMD1 141042Z 20005KT 25/17 A2997 RMK A01 T02530173  RH  061%=      5-min Rain = 0
KMD1 141043Z 21006KT 25/17 A2997 RMK A01 T02530173  RH  061%=      5-min Rain = 0
KMD1 141044Z 20007KT 25/17 A2997 RMK A01 T02530173  RH  061%=      5-min Rain = 0
KMD1 141045Z 20006KT 25/17 A2997 RMK A01 T02530173  RH  061%=      5-min Rain = 0
KMD1 141046Z 20008KT 25/17 A2997 RMK A01 T02530173  RH  061%=      5-min Rain = 0
KMD1 141047Z 20007KT 25/17 A2997 RMK A01 T02530173  RH  061%=      5-min Rain = 0
KMD1 141048Z 21005KT 25/17 A2997 RMK A01 T02530173  RH  061%=      5-min Rain = 0
KMD1 141049Z 21005KT 25/17 A2997 RMK A01 T02530173  RH  061%=      5-min Rain = 0
KMD1 141050Z 20006KT 25/17 A2997 RMK A01 T02520173  RH  062%=      5-min Rain = 0
KMD1 141051Z 21006KT 25/17 A2997 RMK A01 T02520173  RH  062%=      5-min Rain = 0
KMD1 141052Z 20005KT 25/17 A2997 RMK A01 T02520174  RH  062%=      5-min Rain = 0
KMD1 141053Z 20004KT 25/17 A2997 RMK A01 T02520173  RH  062%=      5-min Rain = 0
KMD1 141054Z 20005KT 25/17 A2997 RMK A01 T02510173  RH  062%=      5-min Rain = 0
KMD1 141055Z 20006KT 25/17 A2997 RMK A01 T02510173  RH  062%=      5-min Rain = 0
KMD1 141056Z 21006KT 25/17 A2997 RMK A01 T02510174  RH  062%=      5-min Rain = 0
KMD1 141057Z 21007KT 25/17 A2997 RMK A01 T02510174  RH  062%=      5-min Rain = 0
KMD1 141058Z 20006KT 25/17 A2997 RMK A01 T02510174  RH  062%=      5-min Rain = 0
KMD1 141059Z 21007KT 25/17 A2997 RMK A01 T02510174  RH  062%=      5-min Rain = 0
KMD1 141100Z 20007KT 25/17 A2997 RMK A01 T02520174  RH  062%=      5-min Rain = 0
KMD1 141101Z 21007KT 25/17 A2997 RMK A01 T02520174  RH  062%=      5-min Rain = 0
KMD1 141102Z 20007KT 25/18 A2997 RMK A01 T02520175  RH  062%=      5-min Rain = 0
KMD1 141103Z 21006KT 25/18 A2997 RMK A01 T02520175  RH  062%=      5-min Rain = 0
KMD1 141104Z 21006KT 25/18 A2997 RMK A01 T02520175  RH  062%=      5-min Rain = 0
KMD1 141105Z 21005KT 25/17 A2997 RMK A01 T02510174  RH  063%=      5-min Rain = 0
KMD1 141106Z 22006G11KT 25/18 A2997 RMK A01 T02510175  RH  063%=      5-min Rain = 0
KMD1 141107Z 21008KT 25/18 A2997 RMK A01 T02500175  RH  063%=      5-min Rain = 0
KMD1 141108Z 21006KT 25/18 A2997 RMK A01 T02500175  RH  063%=      5-min Rain = 0
KMD1 141109Z 21006KT 25/18 A2997 RMK A01 T02500175  RH  063%=      5-min Rain = 0
KMD1 141110Z 21006KT 25/18 A2997 RMK A01 T02500176  RH  063%=      5-min Rain = 0
KMD1 141111Z 21007KT 25/18 A2997 RMK A01 T02500175  RH  063%=      5-min Rain = 0
KMD1 141112Z 22007KT 25/18 A2997 RMK A01 T02500176  RH  063%=      5-min Rain = 0
KMD1 141113Z 21006KT 25/18 A2997 RMK A01 T02500176  RH  064%=      5-min Rain = 0
KMD1 141114Z 22007KT 25/18 A2997 RMK A01 T02500176  RH  064%=      5-min Rain = 0
KMD1 141115Z 21006KT 25/18 A2997 RMK A01 T02500176  RH  064%=      5-min Rain = 0
KMD1 141116Z 21006KT 25/18 A2997 RMK A01 T02490176  RH  064%=      5-min Rain = 0
KMD1 141117Z 21006KT 25/18 A2998 RMK A01 T02490177  RH  064%=      5-min Rain = 0
KMD1 141118Z 21008KT 25/18 A2998 RMK A01 T02490177  RH  064%=      5-min Rain = 0
KMD1 141119Z 21008KT 25/18 A2998 RMK A01 T02490177  RH  064%=      5-min Rain = 0
KMD1 141120Z 21008KT 25/18 A2997 RMK A01 T02500178  RH  064%=      5-min Rain = 0
KMD1 141121Z 20006KT 25/18 A2997 RMK A01 T02500178  RH  064%=      5-min Rain = 0
KMD1 141122Z 20007KT 25/18 A2997 RMK A01 T02500178  RH  064%=      5-min Rain = 0
KMD1 141123Z 21006KT 25/18 A2997 RMK A01 T02500178  RH  064%=      5-min Rain = 0
KMD1 141124Z 20009KT 25/18 A2997 RMK A01 T02500179  RH  065%=      5-min Rain = 0
KMD1 141125Z 20007KT 25/18 A2997 RMK A01 T02500179  RH  065%=      5-min Rain = 0
KMD1 141126Z 20009KT 25/18 A2997 RMK A01 T02500179  RH  065%=      5-min Rain = 0
KMD1 141127Z 20008KT 25/18 A2997 RMK A01 T02510180  RH  065%=      5-min Rain = 0
KMD1 141128Z 20009KT 25/18 A2997 RMK A01 T02500180  RH  065%=      5-min Rain = 0
KMD1 141129Z 21007KT 25/18 A2997 RMK A01 T02500180  RH  065%=      5-min Rain = 0
KMD1 141130Z 21007KT 25/18 A2997 RMK A01 T02500181  RH  065%=      5-min Rain = 0
KMD1 141131Z 20008KT 25/18 A2997 RMK A01 T02500180  RH  065%=      5-min Rain = 0
KMD1 141132Z 20006KT 25/18 A2997 RMK A01 T02500181  RH  065%=      5-min Rain = 0
KMD1 141133Z 21008KT 25/18 A2997 RMK A01 T02500181  RH  065%=      5-min Rain = 0
KMD1 141134Z 20007KT 25/18 A2997 RMK A01 T02490181  RH  066%=      5-min Rain = 0
KMD1 141135Z 22007KT 25/18 A2997 RMK A01 T02500181  RH  066%=      5-min Rain = 0
KMD1 141136Z 21009KT 25/18 A2997 RMK A01 T02490181  RH  066%=      5-min Rain = 0
KMD1 141137Z 21008KT 25/18 A2997 RMK A01 T02490182  RH  066%=      5-min Rain = 0
KMD1 141138Z 22008KT 25/18 A2997 RMK A01 T02490181  RH  066%=      5-min Rain = 0
KMD1 141139Z 21007KT 25/18 A2997 RMK A01 T02490181  RH  066%=      5-min Rain = 0
KMD1 141140Z 21006KT 25/18 A2997 RMK A01 T02490182  RH  066%=      5-min Rain = 0
KMD1 141141Z 21010KT 25/18 A2997 RMK A01 T02490182  RH  066%=      5-min Rain = 0
KMD1 141142Z 20007KT 25/18 A2997 RMK A01 T02490182  RH  066%=      5-min Rain = 0
KMD1 141143Z 20009KT 25/18 A2997 RMK A01 T02490183  RH  067%=      5-min Rain = 0
KMD1 141144Z 20009KT 25/18 A2997 RMK A01 T02490183  RH  067%=      5-min Rain = 0
KMD1 141145Z 21008G13KT 25/18 A2997 RMK A01 T02490183  RH  067%=      5-min Rain = 0
KMD1 141146Z 21007KT 25/18 A2997 RMK A01 T02490183  RH  067%=      5-min Rain = 0
KMD1 141147Z 21007KT 25/18 A2997 RMK A01 T02490183  RH  067%=      5-min Rain = 0
KMD1 141148Z 21007KT 25/18 A2997 RMK A01 T02480184  RH  067%=      5-min Rain = 0
KMD1 141149Z 20009KT 25/18 A2997 RMK A01 T02480184  RH  067%=      5-min Rain = 0
KMD1 141150Z 21007KT 25/18 A2997 RMK A01 T02480184  RH  067%=      5-min Rain = 0
KMD1 141151Z 20007G12KT 25/18 A2997 RMK A01 T02480184  RH  067%=      5-min Rain = 0
KMD1 141152Z 20008KT 25/18 A2997 RMK A01 T02480184  RH  068%=      5-min Rain = 0
KMD1 141153Z 20008KT 25/18 A2997 RMK A01 T02480184  RH  068%=      5-min Rain = 0
KMD1 141154Z 20009KT 25/19 A2997 RMK A01 T02480185  RH  068%=      5-min Rain = 0
KMD1 141155Z 21010KT 25/19 A2997 RMK A01 T02480185  RH  068%=      5-min Rain = 0
KMD1 141156Z 20010KT 25/19 A2997 RMK A01 T02480185  RH  068%=      5-min Rain = 0
KMD1 141157Z 20007KT 25/19 A2997 RMK A01 T02480185  RH  068%=      5-min Rain = 0
KMD1 141158Z 20011KT 25/19 A2998 RMK A01 T02480185  RH  068%=      5-min Rain = 0
KMD1 141159Z 20009KT 25/19 A2998 RMK A01 T02480186  RH  068%=      5-min Rain = 0
KMD1 141200Z 20009KT 25/19 A2998 RMK A01 T02480185  RH  068%=      5-min Rain = 0
KMD1 141201Z 20008KT 25/19 A2998 RMK A01 T02480186  RH  068%=      5-min Rain = 0
KMD1 141202Z 20008KT 25/19 A2998 RMK A01 T02480186  RH  068%=      5-min Rain = 0
KMD1 141203Z 20008KT 25/19 A2998 RMK A01 T02480186  RH  068%=      5-min Rain = 0
KMD1 141204Z 20009KT 25/19 A2998 RMK A01 T02470186  RH  069%=      5-min Rain = 0
KMD1 141205Z 20007KT 25/19 A2998 RMK A01 T02470186  RH  069%=      5-min Rain = 0
KMD1 141206Z 20008KT 25/19 A2998 RMK A01 T02470187  RH  069%=      5-min Rain = 0
KMD1 141207Z 20008KT 25/19 A2998 RMK A01 T02470187  RH  069%=      5-min Rain = 0
KMD1 141208Z 20007KT 25/19 A2998 RMK A01 T02470187  RH  069%=      5-min Rain = 0
KMD1 141209Z 20009KT 25/19 A2998 RMK A01 T02470187  RH  069%=      5-min Rain = 0
KMD1 141210Z 20007KT 25/19 A2998 RMK A01 T02470187  RH  069%=      5-min Rain = 0
KMD1 141211Z 20008KT 25/19 A2998 RMK A01 T02470187  RH  069%=      5-min Rain = 0
KMD1 141212Z 20008KT 25/19 A2998 RMK A01 T02460187  RH  070%=      5-min Rain = 0
KMD1 141213Z 20009KT 25/19 A2998 RMK A01 T02470188  RH  070%=      5-min Rain = 0
KMD1 141214Z 20007KT 25/19 A2998 RMK A01 T02470188  RH  070%=      5-min Rain = 0
KMD1 141215Z 20010KT 25/19 A2998 RMK A01 T02470188  RH  070%=      5-min Rain = 0
KMD1 141216Z 21010KT 25/19 A2998 RMK A01 T02470188  RH  070%=      5-min Rain = 0
KMD1 141217Z 20008KT 25/19 A2998 RMK A01 T02470188  RH  070%=      5-min Rain = 0
KMD1 141218Z 20008KT 25/19 A2998 RMK A01 T02470188  RH  070%=      5-min Rain = 0
KMD1 141219Z 20009KT 25/19 A2998 RMK A01 T02470188  RH  070%=      5-min Rain = 0
KMD1 141220Z 21009KT 25/19 A2998 RMK A01 T02470189  RH  070%=      5-min Rain = 0
KMD1 141221Z 21006KT 25/19 A2998 RMK A01 T02470188  RH  070%=      5-min Rain = 0
KMD1 141222Z 20008KT 25/19 A2998 RMK A01 T02470189  RH  070%=      5-min Rain = 0
KMD1 141223Z 20011G16KT 25/19 A2998 RMK A01 T02470189  RH  070%=      5-min Rain = 0
KMD1 141224Z 20008KT 25/19 A2998 RMK A01 T02480189  RH  070%=      5-min Rain = 0
KMD1 141225Z 20008KT 25/19 A2998 RMK A01 T02480189  RH  070%=      5-min Rain = 0
KMD1 141226Z 20008KT 25/19 A2999 RMK A01 T02480189  RH  070%=      5-min Rain = 0
KMD1 141227Z 21007KT 25/19 A2999 RMK A01 T02470189  RH  070%=      5-min Rain = 0
KMD1 141228Z 21008KT 25/19 A2999 RMK A01 T02480189  RH  070%=      5-min Rain = 0
KMD1 141229Z 21008KT 25/19 A2999 RMK A01 T02480190  RH  070%=      5-min Rain = 0
KMD1 141230Z 21008KT 25/19 A2999 RMK A01 T02470189  RH  070%=      5-min Rain = 0
KMD1 141231Z 20007KT 25/19 A2999 RMK A01 T02470190  RH  070%=      5-min Rain = 0
KMD1 141232Z 21009KT 25/19 A2999 RMK A01 T02470190  RH  070%=      5-min Rain = 0
KMD1 141233Z 20009KT 25/19 A2999 RMK A01 T02480190  RH  070%=      5-min Rain = 0
KMD1 141234Z 20009G14KT 25/19 A2999 RMK A01 T02480190  RH  070%=      5-min Rain = 0
KMD1 141235Z 20009KT 25/19 A2999 RMK A01 T02480190  RH  070%=      5-min Rain = 0
KMD1 141236Z 20009KT 25/19 A2999 RMK A01 T02490190  RH  070%=      5-min Rain = 0
KMD1 141237Z 20006KT 25/19 A2999 RMK A01 T02490191  RH  070%=      5-min Rain = 0
KMD1 141238Z 20007KT 25/19 A2999 RMK A01 T02490191  RH  070%=      5-min Rain = 0
KMD1 141239Z 21009KT 25/19 A2999 RMK A01 T02490191  RH  070%=      5-min Rain = 0
KMD1 141240Z 20009KT 25/19 A2999 RMK A01 T02490191  RH  070%=      5-min Rain = 0
KMD1 141241Z 20010KT 25/19 A2999 RMK A01 T02490191  RH  070%=      5-min Rain = 0
KMD1 141242Z 20011KT 25/19 A2999 RMK A01 T02500191  RH  070%=      5-min Rain = 0
KMD1 141243Z 20007KT 25/19 A2999 RMK A01 T02500192  RH  070%=      5-min Rain = 0
KMD1 141244Z 20008KT 25/19 A2999 RMK A01 T02510192  RH  070%=      5-min Rain = 0
KMD1 141245Z 20012KT 25/19 A2999 RMK A01 T02510191  RH  070%=      5-min Rain = 0
KMD1 141246Z 20010KT 25/19 A2999 RMK A01 T02510192  RH  070%=      5-min Rain = 0
KMD1 141247Z 21008KT 25/19 A2999 RMK A01 T02510192  RH  070%=      5-min Rain = 0
KMD1 141248Z 20011KT 25/19 A2999 RMK A01 T02510192  RH  070%=      5-min Rain = 0
KMD1 141249Z 20009KT 25/19 A2999 RMK A01 T02520192  RH  070%=      5-min Rain = 0
KMD1 141250Z 21007KT 25/19 A2999 RMK A01 T02520192  RH  070%=      5-min Rain = 0
KMD1 141251Z 20012KT 25/19 A2999 RMK A01 T02520193  RH  070%=      5-min Rain = 0
KMD1 141252Z 20012KT 25/19 A2999 RMK A01 T02520193  RH  070%=      5-min Rain = 0
KMD1 141253Z 21009KT 25/19 A2999 RMK A01 T02520193  RH  070%=      5-min Rain = 0
KMD1 141254Z 21008KT 25/19 A2999 RMK A01 T02530193  RH  070%=      5-min Rain = 0
KMD1 141255Z 20010KT 25/19 A2999 RMK A01 T02530193  RH  070%=      5-min Rain = 0
KMD1 141256Z 20009KT 25/19 A2999 RMK A01 T02530193  RH  070%=      5-min Rain = 0
KMD1 141257Z 20010G15KT 25/19 A2999 RMK A01 T02530193  RH  070%=      5-min Rain = 0
KMD1 141258Z 20011KT 25/19 A2999 RMK A01 T02530194  RH  070%=      5-min Rain = 0
KMD1 141259Z 20012KT 25/19 A2999 RMK A01 T02530194  RH  070%=      5-min Rain = 0
KMD1 141300Z 21009G16KT 25/20 A2999 RMK A01 T02540195  RH  070%=      5-min Rain = 0
KMD1 141301Z 20008KT 26/20 A2999 RMK A01 T02550195  RH  070%=      5-min Rain = 0
KMD1 141302Z 20009KT 26/20 A2999 RMK A01 T02550195  RH  069%=      5-min Rain = 0
KMD1 141303Z 21010KT 26/20 A2999 RMK A01 T02550195  RH  069%=      5-min Rain = 0
KMD1 141304Z 20011KT 26/20 A2999 RMK A01 T02560196  RH  069%=      5-min Rain = 0
KMD1 141305Z 21009KT 26/20 A2999 RMK A01 T02560196  RH  069%=      5-min Rain = 0
KMD1 141306Z 21011KT 26/20 A2999 RMK A01 T02560196  RH  069%=      5-min Rain = 0
KMD1 141307Z 21009KT 26/20 A2999 RMK A01 T02570196  RH  069%=      5-min Rain = 0
KMD1 141308Z 21010G15KT 26/20 A2999 RMK A01 T02560196  RH  069%=      5-min Rain = 0
KMD1 141309Z 21013KT 26/20 A2999 RMK A01 T02560196  RH  069%=      5-min Rain = 0
KMD1 141310Z 21012KT 26/20 A2999 RMK A01 T02570196  RH  069%=      5-min Rain = 0
KMD1 141311Z 21010KT 26/20 A30 RMK A01 T02570197  RH  069%=      5-min Rain = 0
KMD1 141312Z 20010KT 26/20 A30 RMK A01 T02570197  RH  069%=      5-min Rain = 0
KMD1 141313Z 20009KT 26/20 A30 RMK A01 T02570197  RH  069%=      5-min Rain = 0
KMD1 141314Z 21007KT 26/20 A30 RMK A01 T02580197  RH  069%=      5-min Rain = 0
KMD1 141315Z 20010KT 26/20 A30 RMK A01 T02580198  RH  069%=      5-min Rain = 0
KMD1 141316Z 20012KT 26/20 A30 RMK A01 T02590198  RH  069%=      5-min Rain = 0
KMD1 141317Z 20010G15KT 26/20 A30 RMK A01 T02590198  RH  069%=      5-min Rain = 0
KMD1 141318Z 20008KT 26/20 A30 RMK A01 T02590198  RH  069%=      5-min Rain = 0
KMD1 141319Z 20009KT 26/20 A30 RMK A01 T02600198  RH  069%=      5-min Rain = 0
KMD1 141320Z 20009G14KT 26/20 A2999 RMK A01 T02610198  RH  069%=      5-min Rain = 0
KMD1 141321Z 20009KT 26/20 A30 RMK A01 T02600199  RH  069%=      5-min Rain = 0
KMD1 141322Z 20009KT 26/20 A30 RMK A01 T02600199  RH  069%=      5-min Rain = 0
KMD1 141323Z 21007KT 26/20 A30 RMK A01 T02610199  RH  068%=      5-min Rain = 0
KMD1 141324Z 20011KT 26/20 A30 RMK A01 T02620199  RH  068%=      5-min Rain = 0
KMD1 141325Z 20013G18KT 26/20 A30 RMK A01 T02620199  RH  068%=      5-min Rain = 0
KMD1 141326Z 19012KT 26/20 A30 RMK A01 T02620199  RH  068%=      5-min Rain = 0
KMD1 141327Z 19010KT 26/20 A30 RMK A01 T02620199  RH  068%=      5-min Rain = 0
KMD1 141328Z 20012G18KT 26/20 A30 RMK A01 T02630199  RH  068%=      5-min Rain = 0
KMD1 141329Z 20012KT 26/20 A30 RMK A01 T02630199  RH  068%=      5-min Rain = 0
KMD1 141330Z 20010KT 26/20 A30 RMK A01 T02630200  RH  068%=      5-min Rain = 0
KMD1 141331Z 20010KT 26/20 A30 RMK A01 T02630200  RH  068%=      5-min Rain = 0
KMD1 141332Z 21012KT 26/20 A30 RMK A01 T02640200  RH  068%=      5-min Rain = 0
KMD1 141333Z 20013G19KT 26/20 A30 RMK A01 T02640200  RH  068%=      5-min Rain = 0
KMD1 141334Z 19014KT 27/20 A30 RMK A01 T02650200  RH  068%=      5-min Rain = 0
KMD1 141335Z 20011G16KT 27/20 A30 RMK A01 T02650200  RH  068%=      5-min Rain = 0
KMD1 141336Z 20012KT 27/20 A30 RMK A01 T02650201  RH  068%=      5-min Rain = 0
KMD1 141337Z 20012KT 27/20 A30 RMK A01 T02660200  RH  067%=      5-min Rain = 0
KMD1 141338Z 21013KT 27/20 A30 RMK A01 T02660201  RH  067%=      5-min Rain = 0
KMD1 141339Z 21014KT 27/20 A30 RMK A01 T02660200  RH  067%=      5-min Rain = 0
KMD1 141340Z 20010G15KT 27/20 A30 RMK A01 T02660200  RH  067%=      5-min Rain = 0
KMD1 141341Z 20010G15KT 27/20 A30 RMK A01 T02660201  RH  067%=      5-min Rain = 0
KMD1 141342Z 22008KT 27/20 A30 RMK A01 T02670201  RH  067%=      5-min Rain = 0
KMD1 141343Z 22010KT 27/20 A30 RMK A01 T02690201  RH  066%=      5-min Rain = 0
KMD1 141344Z 22011KT 27/20 A30 RMK A01 T02700201  RH  066%=      5-min Rain = 0
KMD1 141345Z 20008KT 27/20 A30 RMK A01 T02700202  RH  066%=      5-min Rain = 0
KMD1 141346Z 20011G16KT 27/20 A30 RMK A01 T02710201  RH  066%=      5-min Rain = 0
KMD1 141347Z 20010KT 27/20 A30 RMK A01 T02710202  RH  066%=      5-min Rain = 0
KMD1 141348Z 20008KT 27/20 A30 RMK A01 T02710202  RH  066%=      5-min Rain = 0
KMD1 141349Z 21008KT 27/20 A30 RMK A01 T02720202  RH  066%=      5-min Rain = 0
KMD1 141350Z 21011KT 27/20 A30 RMK A01 T02720202  RH  065%=      5-min Rain = 0
KMD1 141351Z 21011KT 27/20 A30 RMK A01 T02720201  RH  065%=      5-min Rain = 0
KMD1 141352Z 20009KT 27/20 A30 RMK A01 T02720202  RH  065%=      5-min Rain = 0
KMD1 141353Z 21009KT 27/20 A30 RMK A01 T02730202  RH  065%=      5-min Rain = 0
KMD1 141354Z 21008G13KT 27/20 A30 RMK A01 T02740202  RH  065%=      5-min Rain = 0
KMD1 141355Z 21009KT 28/20 A30 RMK A01 T02750202  RH  064%=      5-min Rain = 0
KMD1 141356Z 20012KT 28/20 A30 RMK A01 T02750202  RH  065%=      5-min Rain = 0
KMD1 141357Z 21011KT 28/20 A30 RMK A01 T02750202  RH  065%=      5-min Rain = 0
KMD1 141358Z 21011KT 28/20 A30 RMK A01 T02750202  RH  065%=      5-min Rain = 0
KMD1 141359Z 21011KT 28/20 A30 RMK A01 T02750202  RH  064%=      5-min Rain = 0
KMD1 141400Z 21013KT 28/20 A30 RMK A01 T02760201  RH  064%=      5-min Rain = 0
KMD1 141401Z 21013KT 28/20 A30 RMK A01 T02760201  RH  064%=      5-min Rain = 0
KMD1 141402Z 21013KT 28/20 A30 RMK A01 T02760202  RH  064%=      5-min Rain = 0
KMD1 141403Z 21012G17KT 28/20 A30 RMK A01 T02750202  RH  064%=      5-min Rain = 0
KMD1 141404Z 21014KT 28/20 A30 RMK A01 T02760201  RH  064%=      5-min Rain = 0
KMD1 141405Z 20013KT 28/20 A30 RMK A01 T02760201  RH  064%=      5-min Rain = 0
KMD1 141406Z 21011KT 28/20 A30 RMK A01 T02770202  RH  064%=      5-min Rain = 0
KMD1 141407Z 20011G16KT 28/20 A30 RMK A01 T02780202  RH  063%=      5-min Rain = 0
KMD1 141408Z 21013KT 28/20 A30 RMK A01 T02780201  RH  063%=      5-min Rain = 0
KMD1 141409Z 21015KT 28/20 A30 RMK A01 T02780201  RH  063%=      5-min Rain = 0
KMD1 141410Z 22011KT 28/20 A30 RMK A01 T02770201  RH  063%=      5-min Rain = 0
KMD1 141411Z 21010KT 28/20 A30 RMK A01 T02780201  RH  063%=      5-min Rain = 0
KMD1 141412Z 21011KT 28/20 A30 RMK A01 T02800202  RH  063%=      5-min Rain = 0
KMD1 141413Z 20009KT 28/20 A30 RMK A01 T02800201  RH  062%=      5-min Rain = 0
KMD1 141414Z 20012KT 28/20 A30 RMK A01 T02810202  RH  062%=      5-min Rain = 0
KMD1 141415Z 21009KT 28/20 A30 RMK A01 T02810202  RH  062%=      5-min Rain = 0
KMD1 141416Z 21009KT 28/20 A30 RMK A01 T02820203  RH  062%=      5-min Rain = 0
KMD1 141417Z 21008KT 28/20 A30 RMK A01 T02830202  RH  062%=      5-min Rain = 0
KMD1 141418Z 20009G15KT 29/20 A30 RMK A01 T02850203  RH  061%=      5-min Rain = 0
KMD1 141419Z 21012KT 29/20 A30 RMK A01 T02870202  RH  060%=      5-min Rain = 0
KMD1 141420Z 21013KT 29/20 A30 RMK A01 T02860202  RH  060%=      5-min Rain = 0
KMD1 141421Z 21012KT 29/20 A30 RMK A01 T02850202  RH  061%=      5-min Rain = 0
KMD1 141422Z 20011KT 28/20 A30 RMK A01 T02840202  RH  061%=      5-min Rain = 0
KMD1 141423Z 22013KT 28/20 A30 RMK A01 T02830202  RH  061%=      5-min Rain = 0
KMD1 141424Z 22011KT 28/20 A30 RMK A01 T02830202  RH  061%=      5-min Rain = 0
KMD1 141425Z 22010KT 28/20 A30 RMK A01 T02830202  RH  061%=      5-min Rain = 0
KMD1 141426Z 20011G16KT 29/20 A30 RMK A01 T02850202  RH  061%=      5-min Rain = 0
KMD1 141427Z 20012KT 29/20 A30 RMK A01 T02850201  RH  060%=      5-min Rain = 0
KMD1 141428Z 19015KT 29/20 A30 RMK A01 T02860201  RH  060%=      5-min Rain = 0
KMD1 141429Z 19012KT 29/20 A30 RMK A01 T02850201  RH  060%=      5-min Rain = 0
KMD1 141430Z 20012KT 29/20 A30 RMK A01 T02850201  RH  060%=      5-min Rain = 0
KMD1 141431Z 20013KT 29/20 A30 RMK A01 T02860200  RH  060%=      5-min Rain = 0
KMD1 141432Z 20013KT 29/20 A30 RMK A01 T02860200  RH  060%=      5-min Rain = 0
KMD1 141433Z 20010KT 29/20 A30 RMK A01 T02860200  RH  060%=      5-min Rain = 0
KMD1 141434Z 20013KT 29/20 A30 RMK A01 T02870200  RH  060%=      5-min Rain = 0
KMD1 141435Z 20012KT 29/20 A30 RMK A01 T02880200  RH  059%=      5-min Rain = 0
KMD1 141436Z 20012KT 29/20 A30 RMK A01 T02890201  RH  059%=      5-min Rain = 0
KMD1 141437Z 19014KT 29/20 A30 RMK A01 T02900201  RH  058%=      5-min Rain = 0
KMD1 141438Z 20012KT 29/20 A30 RMK A01 T02910201  RH  058%=      5-min Rain = 0
KMD1 141439Z 19011KT 29/20 A30 RMK A01 T02900201  RH  059%=      5-min Rain = 0
KMD1 141440Z 20010KT 29/20 A30 RMK A01 T02900201  RH  059%=      5-min Rain = 0
KMD1 141441Z 21009KT 29/20 A30 RMK A01 T02920201  RH  058%=      5-min Rain = 0
KMD1 141442Z 22011KT 29/20 A30 RMK A01 T02930200  RH  057%=      5-min Rain = 0
KMD1 141443Z 22012KT 29/20 A30 RMK A01 T02930201  RH  058%=      5-min Rain = 0
KMD1 141444Z 21013KT 29/20 A30 RMK A01 T02930200  RH  057%=      5-min Rain = 0
KMD1 141445Z 21012KT 29/20 A30 RMK A01 T02940199  RH  057%=      5-min Rain = 0
KMD1 141446Z 21009G14KT 29/20 A30 RMK A01 T02930200  RH  057%=      5-min Rain = 0
KMD1 141447Z 22012KT 30/20 A30 RMK A01 T02950199  RH  057%=      5-min Rain = 0
KMD1 141448Z 21012KT 30/20 A30 RMK A01 T02950199  RH  056%=      5-min Rain = 0
KMD1 141449Z 21009KT 30/20 A30 RMK A01 T02950199  RH  056%=      5-min Rain = 0
KMD1 141450Z 23011KT 30/20 A30 RMK A01 T02970199  RH  056%=      5-min Rain = 0
KMD1 141451Z 21010KT 30/20 A30 RMK A01 T02980199  RH  055%=      5-min Rain = 0
KMD1 141452Z 22013KT 30/20 A30 RMK A01 T02980199  RH  056%=      5-min Rain = 0
KMD1 141453Z 21012KT 30/20 A30 RMK A01 T02970199  RH  056%=      5-min Rain = 0
KMD1 141454Z 21011KT 30/20 A30 RMK A01 T02970198  RH  055%=      5-min Rain = 0
KMD1 141455Z 22013G18KT 30/20 A30 RMK A01 T02980197  RH  055%=      5-min Rain = 0
KMD1 141456Z 23014KT 30/20 A30 RMK A01 T02990196  RH  054%=      5-min Rain = 0
KMD1 141457Z 21013KT 30/20 A30 RMK A01 T02980196  RH  054%=      5-min Rain = 0
KMD1 141458Z 21012KT 30/20 A30 RMK A01 T02990197  RH  054%=      5-min Rain = 0
KMD1 141459Z 22012KT 30/20 A30 RMK A01 T02990196  RH  054%=      5-min Rain = 0
KMD1 141500Z 22012KT 30/20 A30 RMK A01 T03000196  RH  054%=      5-min Rain = 0
KMD1 141501Z 21012G17KT 30/20 A30 RMK A01 T03020195  RH  053%=      5-min Rain = 0
KMD1 141502Z 20014KT 30/20 A30 RMK A01 T03020195  RH  053%=      5-min Rain = 0
KMD1 141503Z 22010KT 30/20 A30 RMK A01 T03020196  RH  053%=      5-min Rain = 0
KMD1 141504Z 21012KT 30/20 A30 RMK A01 T03030196  RH  053%=      5-min Rain = 0
KMD1 141505Z 21012KT 30/20 A30 RMK A01 T03030197  RH  053%=      5-min Rain = 0
KMD1 141506Z 20011KT 30/20 A30 RMK A01 T03030195  RH  053%=      5-min Rain = 0
KMD1 141507Z 21010KT 30/20 A30 RMK A01 T03020197  RH  053%=      5-min Rain = 0
KMD1 141508Z 21010KT 30/20 A30 RMK A01 T03030196  RH  053%=      5-min Rain = 0
KMD1 141509Z 21013KT 30/19 A30 RMK A01 T03040194  RH  052%=      5-min Rain = 0
KMD1 141510Z 22009KT 30/20 A30 RMK A01 T03040195  RH  052%=      5-min Rain = 0
KMD1 141511Z 21012KT 30/20 A30 RMK A01 T03040195  RH  052%=      5-min Rain = 0
KMD1 141512Z 20011KT 31/19 A3001 RMK A01 T03050193  RH  051%=      5-min Rain = 0
KMD1 141513Z 21010KT 31/19 A3001 RMK A01 T03060194  RH  051%=      5-min Rain = 0
KMD1 141514Z 21012KT 31/19 A30 RMK A01 T03060193  RH  051%=      5-min Rain = 0
KMD1 141515Z 21010G15KT 31/19 A3001 RMK A01 T03070194  RH  051%=      5-min Rain = 0
KMD1 141516Z 20011KT 31/19 A3001 RMK A01 T03080194  RH  051%=      5-min Rain = 0
KMD1 141517Z 22011KT 31/19 A3001 RMK A01 T03100194  RH  050%=      5-min Rain = 0
KMD1 141518Z 22009KT 31/20 A3001 RMK A01 T03100195  RH  050%=      5-min Rain = 0
KMD1 141519Z 21009KT 31/20 A30 RMK A01 T03100196  RH  051%=      5-min Rain = 0
KMD1 141520Z 21009KT 31/19 A3001 RMK A01 T03110194  RH  050%=      5-min Rain = 0
KMD1 141521Z 20013KT 31/19 A3001 RMK A01 T03130192  RH  049%=      5-min Rain = 0
KMD1 141522Z 21010G15KT 31/19 A3001 RMK A01 T03130193  RH  049%=      5-min Rain = 0
KMD1 141523Z 22012KT 31/19 A3001 RMK A01 T03140194  RH  049%=      5-min Rain = 0
KMD1 141524Z 21010KT 31/19 A3001 RMK A01 T03140193  RH  049%=      5-min Rain = 0
KMD1 141525Z 20013KT 31/19 A30 RMK A01 T03120193  RH  049%=      5-min Rain = 0
KMD1 141526Z 20013KT 31/19 A30 RMK A01 T03120193  RH  049%=      5-min Rain = 0
KMD1 141527Z 21012KT 31/19 A30 RMK A01 T03110190  RH  048%=      5-min Rain = 0
KMD1 141528Z 22013KT 31/19 A30 RMK A01 T03110191  RH  049%=      5-min Rain = 0
KMD1 141529Z 23011KT 31/19 A30 RMK A01 T03120192  RH  049%=      5-min Rain = 0
KMD1 141530Z 21012KT 31/19 A30 RMK A01 T03130191  RH  048%=      5-min Rain = 0
KMD1 141531Z 20012KT 32/19 A30 RMK A01 T03150191  RH  048%=      5-min Rain = 0
KMD1 141532Z 21011KT 32/19 A3001 RMK A01 T03160191  RH  048%=      5-min Rain = 0
KMD1 141533Z 22012KT 32/19 A3001 RMK A01 T03150190  RH  047%=      5-min Rain = 0
KMD1 141534Z 21011KT 32/19 A3001 RMK A01 T03160190  RH  047%=      5-min Rain = 0
KMD1 141535Z 21010KT 32/19 A3001 RMK A01 T03170192  RH  047%=      5-min Rain = 0
KMD1 141536Z 20011KT 32/19 A3001 RMK A01 T03160192  RH  048%=      5-min Rain = 0
KMD1 141537Z 19011KT 32/19 A3001 RMK A01 T03170191  RH  047%=      5-min Rain = 0
KMD1 141538Z 20012KT 32/19 A3001 RMK A01 T03170190  RH  047%=      5-min Rain = 0
KMD1 141539Z 19014KT 32/19 A3001 RMK A01 T03170189  RH  047%=      5-min Rain = 0
KMD1 141540Z 19010KT 32/19 A3001 RMK A01 T03170189  RH  046%=      5-min Rain = 0
KMD1 141541Z 19009KT 32/19 A3001 RMK A01 T03180190  RH  047%=      5-min Rain = 0
KMD1 141542Z 21009KT 32/19 A3001 RMK A01 T03200193  RH  047%=      5-min Rain = 0
KMD1 141543Z 22009KT 32/20 A3001 RMK A01 T03220195  RH  047%=      5-min Rain = 0
KMD1 141544Z 21008KT 32/20 A3001 RMK A01 T03200195  RH  048%=      5-min Rain = 0
KMD1 141545Z 23007KT 32/19 A3001 RMK A01 T03190194  RH  047%=      5-min Rain = 0
KMD1 141546Z 21010G19KT 32/19 A3001 RMK A01 T03220192  RH  046%=      5-min Rain = 0
KMD1 141547Z 20007KT 32/19 A3001 RMK A01 T03240193  RH  046%=      5-min Rain = 0
KMD1 141548Z 21007KT 33/19 A3001 RMK A01 T03290194  RH  045%=      5-min Rain = 0
KMD1 141549Z 23009KT 33/19 A3001 RMK A01 T03300193  RH  044%=      5-min Rain = 0
KMD1 141550Z 21007KT 33/19 A3001 RMK A01 T03270191  RH  045%=      5-min Rain = 0
KMD1 141551Z 20008KT 33/19 A3001 RMK A01 T03270190  RH  044%=      5-min Rain = 0
KMD1 141552Z 21009KT 33/19 A3001 RMK A01 T03270189  RH  044%=      5-min Rain = 0
KMD1 141553Z 19011KT 33/19 A3001 RMK A01 T03270187  RH  043%=      5-min Rain = 0
KMD1 141554Z 20012KT 33/19 A3001 RMK A01 T03260186  RH  043%=      5-min Rain = 0
KMD1 141555Z 21010KT 32/19 A3001 RMK A01 T03240187  RH  044%=      5-min Rain = 0
KMD1 141556Z 21009KT 32/19 A3001 RMK A01 T03240188  RH  045%=      5-min Rain = 0
KMD1 141557Z 23008KT 32/19 A3001 RMK A01 T03230188  RH  045%=      5-min Rain = 0
KMD1 141558Z 23012KT 32/19 A3001 RMK A01 T03240189  RH  045%=      5-min Rain = 0
KMD1 141559Z 20009KT 32/19 A3001 RMK A01 T03240188  RH  045%=      5-min Rain = 0
KMD1 141600Z 20009KT 33/19 A3001 RMK A01 T03250188  RH  044%=      5-min Rain = 0
KMD1 141601Z 21009KT 33/19 A3001 RMK A01 T03260187  RH  044%=      5-min Rain = 0
KMD1 141602Z 21009KT 33/19 A3001 RMK A01 T03260186  RH  044%=      5-min Rain = 0
KMD1 141603Z 19008KT 33/18 A3001 RMK A01 T03260184  RH  043%=      5-min Rain = 0
KMD1 141604Z 20008KT 33/19 A3001 RMK A01 T03270185  RH  043%=      5-min Rain = 0
KMD1 141605Z 23006KT 33/19 A3001 RMK A01 T03310187  RH  043%=      5-min Rain = 0
KMD1 141606Z 23008KT 34/18 A3001 RMK A01 T03350184  RH  041%=      5-min Rain = 0
KMD1 141607Z 21009KT 34/18 A3001 RMK A01 T03350184  RH  041%=      5-min Rain = 0
KMD1 141608Z 22009KT 34/18 A3001 RMK A01 T03350183  RH  041%=      5-min Rain = 0
KMD1 141609Z 21008KT 34/18 A3001 RMK A01 T03360182  RH  040%=      5-min Rain = 0
KMD1 141610Z 19007KT 34/18 A3001 RMK A01 T03360180  RH  040%=      5-min Rain = 0
KMD1 141611Z 17009KT 34/18 A3001 RMK A01 T03360180  RH  039%=      5-min Rain = 0
KMD1 141612Z 18009KT 34/18 A3001 RMK A01 T03380179  RH  039%=      5-min Rain = 0
KMD1 141613Z 22007KT 34/18 A3001 RMK A01 T03370179  RH  039%=      5-min Rain = 0
KMD1 141614Z 20009KT 34/18 A3001 RMK A01 T03360179  RH  039%=      5-min Rain = 0
KMD1 141615Z 21011KT 34/18 A3001 RMK A01 T03360177  RH  039%=      5-min Rain = 0
KMD1 141616Z 20011KT 34/17 A3001 RMK A01 T03360174  RH  038%=      5-min Rain = 0
KMD1 141617Z 20010KT 34/18 A3001 RMK A01 T03360176  RH  038%=      5-min Rain = 0
KMD1 141618Z 19009KT 34/18 A3001 RMK A01 T03380175  RH  038%=      5-min Rain = 0
KMD1 141619Z 19009KT 34/17 A3001 RMK A01 T03390174  RH  037%=      5-min Rain = 0
KMD1 141620Z 22009KT 34/17 A3001 RMK A01 T03380174  RH  038%=      5-min Rain = 0
KMD1 141621Z 22011KT 34/17 A3001 RMK A01 T03380172  RH  037%=      5-min Rain = 0
KMD1 141622Z 22009KT 34/17 A3001 RMK A01 T03380172  RH  037%=      5-min Rain = 0
KMD1 141623Z 22010KT 34/17 A3001 RMK A01 T03370170  RH  037%=      5-min Rain = 0
KMD1 141624Z 22010KT 34/17 A3001 RMK A01 T03370170  RH  037%=      5-min Rain = 0
KMD1 141625Z 23009KT 34/17 A3001 RMK A01 T03390169  RH  036%=      5-min Rain = 0
KMD1 141626Z 23006KT 34/17 A3001 RMK A01 T03390170  RH  037%=      5-min Rain = 0
KMD1 141627Z 22008KT 34/17 A3001 RMK A01 T03400171  RH  037%=      5-min Rain = 0
KMD1 141628Z 23006KT 34/17 A3001 RMK A01 T03400174  RH  037%=      5-min Rain = 0
KMD1 141629Z 20009KT 35/18 A3001 RMK A01 T03450176  RH  037%=      5-min Rain = 0
KMD1 141630Z 21009KT 35/17 A3001 RMK A01 T03460172  RH  036%=      5-min Rain = 0
KMD1 141631Z 22009G14KT 34/18 A3001 RMK A01 T03420176  RH  037%=      5-min Rain = 0
KMD1 141632Z 20009KT 34/17 A3001 RMK A01 T03420173  RH  037%=      5-min Rain = 0
KMD1 141633Z 21011G17KT 34/17 A3001 RMK A01 T03430174  RH  037%=      5-min Rain = 0
KMD1 141634Z 20011KT 34/17 A3001 RMK A01 T03420172  RH  036%=      5-min Rain = 0
KMD1 141635Z 21007KT 34/17 A3001 RMK A01 T03400170  RH  036%=      5-min Rain = 0
KMD1 141636Z 20008KT 34/17 A3001 RMK A01 T03430171  RH  036%=      5-min Rain = 0
KMD1 141637Z 20012KT 35/17 A3001 RMK A01 T03450170  RH  035%=      5-min Rain = 0
KMD1 141638Z 21012KT 34/17 A3001 RMK A01 T03430170  RH  036%=      5-min Rain = 0
KMD1 141639Z 20011KT 34/17 A3001 RMK A01 T03420169  RH  036%=      5-min Rain = 0
KMD1 141640Z 19010KT 34/17 A3001 RMK A01 T03410168  RH  036%=      5-min Rain = 0
KMD1 141641Z 18010KT 34/17 A3001 RMK A01 T03410169  RH  036%=      5-min Rain = 0
KMD1 141642Z 17011KT 34/17 A30 RMK A01 T03440171  RH  036%=      5-min Rain = 0
KMD1 141643Z 18011KT 34/17 A30 RMK A01 T03440172  RH  036%=      5-min Rain = 0
KMD1 141644Z 18011KT 34/17 A30 RMK A01 T03440167  RH  035%=      5-min Rain = 0
KMD1 141645Z 19010KT 34/17 A30 RMK A01 T03440165  RH  034%=      5-min Rain = 0
KMD1 141646Z 20010KT 35/17 A30 RMK A01 T03460167  RH  035%=      5-min Rain = 0
KMD1 141647Z 20012KT 35/16 A30 RMK A01 T03480163  RH  033%=      5-min Rain = 0
KMD1 141648Z 20013KT 35/16 A30 RMK A01 T03470163  RH  033%=      5-min Rain = 0
KMD1 141649Z 20011KT 35/16 A3001 RMK A01 T03450164  RH  034%=      5-min Rain = 0
KMD1 141650Z 20011KT 35/17 A3001 RMK A01 T03470166  RH  034%=      5-min Rain = 0
KMD1 141651Z 20009KT 35/17 A3001 RMK A01 T03470167  RH  034%=      5-min Rain = 0
KMD1 141652Z 19010KT 35/17 A3001 RMK A01 T03490166  RH  034%=      5-min Rain = 0
KMD1 141653Z 20008KT 35/16 A3001 RMK A01 T03470163  RH  034%=      5-min Rain = 0
KMD1 141654Z 20006KT 34/16 A30 RMK A01 T03430162  RH  034%=      5-min Rain = 0
KMD1 141655Z 21008KT 34/17 A30 RMK A01 T03430165  RH  035%=      5-min Rain = 0
KMD1 141656Z 22007KT 35/17 A30 RMK A01 T03460167  RH  035%=      5-min Rain = 0
KMD1 141657Z 21009KT 35/17 A30 RMK A01 T03460168  RH  035%=      5-min Rain = 0
KMD1 141658Z 21006KT 35/17 A30 RMK A01 T03480168  RH  034%=      5-min Rain = 0
KMD1 141659Z 22005KT 35/17 A30 RMK A01 T03500169  RH  034%=      5-min Rain = 0
KMD1 141700Z 23006G13KT 35/17 A30 RMK A01 T03520169  RH  034%=      5-min Rain = 0
KMD1 141701Z 21008KT 36/17 A30 RMK A01 T03560172  RH  034%=      5-min Rain = 0
KMD1 141702Z 21011KT 36/17 A30 RMK A01 T03560172  RH  034%=      5-min Rain = 0
KMD1 141703Z 20007KT 35/17 A30 RMK A01 T03520171  RH  034%=      5-min Rain = 0
KMD1 141704Z 19009KT 35/17 A30 RMK A01 T03510169  RH  034%=      5-min Rain = 0
KMD1 141705Z 21010KT 35/16 A30 RMK A01 T03540163  RH  032%=      5-min Rain = 0
KMD1 141706Z 20010KT 36/16 A30 RMK A01 T03570156  RH  030%=      5-min Rain = 0
KMD1 141707Z 20011KT 36/16 A30 RMK A01 T03550159  RH  031%=      5-min Rain = 0
KMD1 141708Z 20009KT 35/16 A30 RMK A01 T03530162  RH  032%=      5-min Rain = 0
KMD1 141709Z 20009KT 35/16 A30 RMK A01 T03520162  RH  032%=      5-min Rain = 0
KMD1 141710Z 21008KT 35/16 A30 RMK A01 T03510162  RH  033%=      5-min Rain = 0
KMD1 141711Z 18010KT 35/17 A30 RMK A01 T03510165  RH  033%=      5-min Rain = 0
KMD1 141712Z 19009KT 36/16 A30 RMK A01 T03550164  RH  032%=      5-min Rain = 0
KMD1 141713Z 19011KT 36/17 A30 RMK A01 T03550165  RH  032%=      5-min Rain = 0
KMD1 141714Z 18011KT 35/17 A30 RMK A01 T03520166  RH  033%=      5-min Rain = 0
KMD1 141715Z 18010KT 35/16 A30 RMK A01 T03520163  RH  032%=      5-min Rain = 0
KMD1 141716Z 17009KT 36/16 A30 RMK A01 T03570164  RH  032%=      5-min Rain = 0
KMD1 141717Z 20007KT 36/17 A30 RMK A01 T03610165  RH  031%=      5-min Rain = 0
KMD1 141718Z 20008KT 36/16 A30 RMK A01 T03620164  RH  031%=      5-min Rain = 0
KMD1 141719Z 21007KT 36/17 A30 RMK A01 T03610169  RH  032%=      5-min Rain = 0
KMD1 141720Z 21009KT 36/17 A30 RMK A01 T03640167  RH  031%=      5-min Rain = 0
KMD1 141721Z 23007KT 36/17 A30 RMK A01 T03630171  RH  032%=      5-min Rain = 0
KMD1 141722Z 19011KT 36/17 A30 RMK A01 T03610166  RH  031%=      5-min Rain = 0
KMD1 141723Z 21008KT 36/16 A30 RMK A01 T03570162  RH  032%=      5-min Rain = 0
KMD1 141724Z 21012KT 36/16 A30 RMK A01 T03560162  RH  032%=      5-min Rain = 0
KMD1 141725Z 22011KT 36/16 A30 RMK A01 T03550161  RH  032%=      5-min Rain = 0
KMD1 141726Z 22007KT 35/16 A30 RMK A01 T03530159  RH  031%=      5-min Rain = 0
KMD1 141727Z 23008KT 35/16 A30 RMK A01 T03520160  RH  032%=      5-min Rain = 0
KMD1 141728Z 21006KT 35/16 A30 RMK A01 T03540159  RH  031%=      5-min Rain = 0
KMD1 141729Z 18008KT 36/16 A30 RMK A01 T03580158  RH  031%=      5-min Rain = 0
KMD1 141730Z 19008KT 36/16 A30 RMK A01 T03590155  RH  030%=      5-min Rain = 0
KMD1 141731Z 21010KT 36/16 A30 RMK A01 T03610164  RH  031%=      5-min Rain = 0
KMD1 141732Z 21007G13KT 36/17 A30 RMK A01 T03610167  RH  032%=      5-min Rain = 0
KMD1 141733Z 20008KT 36/17 A30 RMK A01 T03640165  RH  031%=      5-min Rain = 0
KMD1 141734Z 20007KT 37/16 A30 RMK A01 T03670163  RH  030%=      5-min Rain = 0
KMD1 141735Z 23006KT 36/17 A2999 RMK A01 T03640165  RH  031%=      5-min Rain = 0
KMD1 141736Z 23006KT 36/16 A2999 RMK A01 T03600164  RH  031%=      5-min Rain = 0
KMD1 141737Z 20011KT 36/16 A2999 RMK A01 T03600164  RH  031%=      5-min Rain = 0
KMD1 141738Z 20011KT 36/16 A2999 RMK A01 T03610159  RH  030%=      5-min Rain = 0
KMD1 141739Z 19008KT 36/16 A2999 RMK A01 T03600163  RH  031%=      5-min Rain = 0
KMD1 141740Z 19007KT 36/16 A2999 RMK A01 T03590161  RH  031%=      5-min Rain = 0
KMD1 141741Z 19013KT 36/16 A2999 RMK A01 T03600156  RH  030%=      5-min Rain = 0
KMD1 141742Z 19012KT 36/15 A2999 RMK A01 T03600149  RH  028%=      5-min Rain = 0
KMD1 141743Z 20009KT 36/14 A2999 RMK A01 T03580141  RH  027%=      5-min Rain = 0
KMD1 141744Z 20005KT 36/14 A2999 RMK A01 T03610138  RH  026%=      5-min Rain = 0
KMD1 141745Z 21010G17KT 36/15 A2999 RMK A01 T03640153  RH  029%=      5-min Rain = 0
KMD1 141746Z 22011KT 37/16 A2999 RMK A01 T03650160  RH  030%=      5-min Rain = 0
KMD1 141747Z 21011KT 36/16 A2999 RMK A01 T03640155  RH  029%=      5-min Rain = 0
KMD1 141748Z 19009KT 36/16 A2999 RMK A01 T03630159  RH  030%=      5-min Rain = 0
KMD1 141749Z 19010KT 37/16 A2999 RMK A01 T03650157  RH  029%=      5-min Rain = 0
KMD1 141750Z 20011KT 37/16 A2999 RMK A01 T03660156  RH  029%=      5-min Rain = 0
KMD1 141751Z 20010KT 36/16 A2999 RMK A01 T03630159  RH  030%=      5-min Rain = 0
KMD1 141752Z 20010KT 36/16 A2999 RMK A01 T03630159  RH  030%=      5-min Rain = 0
KMD1 141753Z 19008KT 36/16 A2999 RMK A01 T03630159  RH  030%=      5-min Rain = 0
KMD1 141754Z 18007G12KT 36/16 A2999 RMK A01 T03610159  RH  030%=      5-min Rain = 0
KMD1 141755Z 18008KT 36/16 A2999 RMK A01 T03620159  RH  030%=      5-min Rain = 0
KMD1 141756Z 20008KT 36/16 A2998 RMK A01 T03630159  RH  030%=      5-min Rain = 0
KMD1 141757Z 21009KT 37/16 A2998 RMK A01 T03650161  RH  030%=      5-min Rain = 0
KMD1 141758Z 22008KT 37/16 A2998 RMK A01 T03670162  RH  030%=      5-min Rain = 0
KMD1 141759Z 23010KT 37/16 A2998 RMK A01 T03690162  RH  030%=      5-min Rain = 0
KMD1 141800Z 22011KT 37/16 A2998 RMK A01 T03710158  RH  028%=      5-min Rain = 0
KMD1 141801Z 21010KT 37/16 A2998 RMK A01 T03710158  RH  029%=      5-min Rain = 0
KMD1 141802Z 19008KT 37/16 A2998 RMK A01 T03710156  RH  028%=      5-min Rain = 0
KMD1 141803Z 19006KT 37/15 A2998 RMK A01 T03730149  RH  027%=      5-min Rain = 0
KMD1 141804Z 19007KT 38/15 A2998 RMK A01 T03750148  RH  026%=      5-min Rain = 0
KMD1 141805Z 18010KT 37/15 A2998 RMK A01 T03720152  RH  027%=      5-min Rain = 0
KMD1 141806Z 20010KT 37/15 A2998 RMK A01 T03700154  RH  028%=      5-min Rain = 0
KMD1 141807Z 22009KT 37/16 A2998 RMK A01 T03710157  RH  028%=      5-min Rain = 0
KMD1 141808Z 24006KT 37/16 A2998 RMK A01 T03690158  RH  029%=      5-min Rain = 0
KMD1 141809Z 20005KT 37/16 A2998 RMK A01 T03660159  RH  029%=      5-min Rain = 0
KMD1 141810Z 19010G16KT 37/16 A2998 RMK A01 T03650158  RH  029%=      5-min Rain = 0
KMD1 141811Z 19007KT 37/15 A2998 RMK A01 T03660154  RH  028%=      5-min Rain = 0
KMD1 141812Z 21006KT 37/16 A2998 RMK A01 T03650156  RH  029%=      5-min Rain = 0
KMD1 141813Z 22004KT 37/15 A2998 RMK A01 T03650154  RH  029%=      5-min Rain = 0
KMD1 141814Z 20010KT 37/16 A2998 RMK A01 T03650156  RH  029%=      5-min Rain = 0
KMD1 141815Z 21010G15KT 37/16 A2998 RMK A01 T03680159  RH  029%=      5-min Rain = 0
KMD1 141816Z 21007KT 37/16 A2998 RMK A01 T03730157  RH  028%=      5-min Rain = 0
KMD1 141817Z 22006KT 37/16 A2998 RMK A01 T03740157  RH  028%=      5-min Rain = 0
KMD1 141818Z 21006KT 37/16 A2998 RMK A01 T03740156  RH  028%=      5-min Rain = 0
KMD1 141819Z 18003KT 37/15 A2998 RMK A01 T03740148  RH  026%=      5-min Rain = 0
KMD1 141820Z 20004KT 37/15 A2998 RMK A01 T03720147  RH  026%=      5-min Rain = 0
KMD1 141821Z 23007KT 37/15 A2998 RMK A01 T03720153  RH  027%=      5-min Rain = 0
KMD1 141822Z 22009KT 38/15 A2998 RMK A01 T03760153  RH  027%=      5-min Rain = 0
KMD1 141823Z 21008KT 38/15 A2998 RMK A01 T03790152  RH  026%=      5-min Rain = 0
KMD1 141824Z 20010KT 38/15 A2998 RMK A01 T03780153  RH  026%=      5-min Rain = 0
KMD1 141825Z 20009KT 38/15 A2998 RMK A01 T03770152  RH  027%=      5-min Rain = 0
KMD1 141826Z 19007KT 38/15 A2998 RMK A01 T03760152  RH  027%=      5-min Rain = 0
KMD1 141827Z 20007KT 38/15 A2998 RMK A01 T03760153  RH  027%=      5-min Rain = 0
KMD1 141828Z 21009KT 38/15 A2997 RMK A01 T03770150  RH  026%=      5-min Rain = 0
KMD1 141829Z 21012KT 37/15 A2997 RMK A01 T03740153  RH  027%=      5-min Rain = 0
KMD1 141830Z 22008G13KT 37/15 A2997 RMK A01 T03740150  RH  027%=      5-min Rain = 0
KMD1 141831Z 23005KT 37/15 A2997 RMK A01 T03730151  RH  027%=      5-min Rain = 0
KMD1 141832Z 24009KT 38/15 A2997 RMK A01 T03750148  RH  026%=      5-min Rain = 0
KMD1 141833Z 25006KT 38/14 A2997 RMK A01 T03780143  RH  025%=      5-min Rain = 0
KMD1 141834Z 22004KT 38/15 A2997 RMK A01 T03790145  RH  025%=      5-min Rain = 0
KMD1 141835Z 25006KT 38/15 A2997 RMK A01 T03810146  RH  025%=      5-min Rain = 0
KMD1 141836Z 23007G12KT 38/15 A2997 RMK A01 T03800146  RH  025%=      5-min Rain = 0
KMD1 141837Z 23004KT 38/15 A2997 RMK A01 T03770148  RH  026%=      5-min Rain = 0
KMD1 141838Z 21010KT 38/15 A2997 RMK A01 T03780149  RH  026%=      5-min Rain = 0
KMD1 141839Z 21008KT 38/15 A2997 RMK A01 T03800148  RH  025%=      5-min Rain = 0
KMD1 141840Z 21005KT 38/15 A2997 RMK A01 T03800151  RH  026%=      5-min Rain = 0
KMD1 141841Z 19007KT 38/15 A2997 RMK A01 T03820150  RH  025%=      5-min Rain = 0
KMD1 141842Z 20008KT 38/15 A2997 RMK A01 T03810145  RH  025%=      5-min Rain = 0
KMD1 141843Z 20007KT 38/15 A2997 RMK A01 T03810148  RH  025%=      5-min Rain = 0
KMD1 141844Z 20009KT 38/15 A2997 RMK A01 T03820148  RH  025%=      5-min Rain = 0
KMD1 141845Z 21009KT 38/15 A2997 RMK A01 T03800149  RH  025%=      5-min Rain = 0
KMD1 141846Z 21007KT 38/15 A2997 RMK A01 T03800145  RH  025%=      5-min Rain = 0
KMD1 141847Z 21005KT 38/15 A2997 RMK A01 T03790145  RH  025%=      5-min Rain = 0
KMD1 141848Z 21005KT 38/15 A2997 RMK A01 T03800146  RH  025%=      5-min Rain = 0
KMD1 141849Z 22005KT 38/14 A2997 RMK A01 T03780142  RH  025%=      5-min Rain = 0
KMD1 141850Z 21003KT 38/14 A2997 RMK A01 T03770144  RH  025%=      5-min Rain = 0
KMD1 141851Z 20005G10KT 38/15 A2996 RMK A01 T03780146  RH  025%=      5-min Rain = 0
KMD1 141852Z 22008KT 38/15 A2996 RMK A01 T03810147  RH  025%=      5-min Rain = 0
KMD1 141853Z 22007KT 38/15 A2996 RMK A01 T03810147  RH  025%=      5-min Rain = 0
KMD1 141854Z 24005KT 38/15 A2996 RMK A01 T03820149  RH  025%=      5-min Rain = 0
KMD1 141855Z 24008KT 38/15 A2996 RMK A01 T03810152  RH  026%=      5-min Rain = 0
KMD1 141856Z 23006KT 38/15 A2996 RMK A01 T03810154  RH  026%=      5-min Rain = 0
KMD1 141857Z 21008KT 38/16 A2996 RMK A01 T03800155  RH  027%=      5-min Rain = 0
KMD1 141858Z 19008KT 39/15 A2996 RMK A01 T03850152  RH  025%=      5-min Rain = 0
KMD1 141859Z 15007KT 39/15 A2996 RMK A01 T03880150  RH  025%=      5-min Rain = 0
KMD1 141900Z 15005KT 39/15 A2996 RMK A01 T03880151  RH  025%=      5-min Rain = 0
KMD1 141901Z 20004KT 39/15 A2996 RMK A01 T03880151  RH  025%=      5-min Rain = 0
KMD1 141902Z 17007KT 39/15 A2996 RMK A01 T03890154  RH  025%=      5-min Rain = 0
KMD1 141903Z 19005KT 39/15 A2996 RMK A01 T03900153  RH  025%=      5-min Rain = 0
KMD1 141904Z 19007KT 39/16 A2996 RMK A01 T03880155  RH  025%=      5-min Rain = 0
KMD1 141905Z 18007KT 39/15 A2996 RMK A01 T03890152  RH  025%=      5-min Rain = 0
KMD1 141906Z 19004KT 39/15 A2996 RMK A01 T03870153  RH  025%=      5-min Rain = 0
KMD1 141907Z 22007KT 39/15 A2996 RMK A01 T03880150  RH  025%=      5-min Rain = 0
KMD1 141908Z 26007KT 39/15 A2996 RMK A01 T03870146  RH  024%=      5-min Rain = 0
KMD1 141909Z 25007KT 39/14 A2996 RMK A01 T03850139  RH  023%=      5-min Rain = 0
KMD1 141910Z 24006KT 38/14 A2996 RMK A01 T03840140  RH  024%=      5-min Rain = 0
KMD1 141911Z 20006KT 39/14 A2996 RMK A01 T03870141  RH  023%=      5-min Rain = 0
KMD1 141912Z 19009KT 39/15 A2996 RMK A01 T03890148  RH  024%=      5-min Rain = 0
KMD1 141913Z 17010KT 39/15 A2996 RMK A01 T03880150  RH  025%=      5-min Rain = 0
KMD1 141914Z 17010KT 39/15 A2995 RMK A01 T03890149  RH  024%=      5-min Rain = 0
KMD1 141915Z 16004KT 39/15 A2995 RMK A01 T03890145  RH  024%=      5-min Rain = 0
KMD1 141916Z 17005KT 39/15 A2995 RMK A01 T03860146  RH  024%=      5-min Rain = 0
KMD1 141917Z 20009KT 39/14 A2995 RMK A01 T03880143  RH  024%=      5-min Rain = 0
KMD1 141918Z 23008KT 39/14 A2995 RMK A01 T03880143  RH  023%=      5-min Rain = 0
KMD1 141919Z 24009KT 39/14 A2995 RMK A01 T03890139  RH  023%=      5-min Rain = 0
KMD1 141920Z 24009KT 39/14 A2995 RMK A01 T03890136  RH  022%=      5-min Rain = 0
KMD1 141921Z 24008KT 39/14 A2995 RMK A01 T03870139  RH  023%=      5-min Rain = 0
KMD1 141922Z 22007KT 39/14 A2995 RMK A01 T03880144  RH  024%=      5-min Rain = 0
KMD1 141923Z 22010KT 39/15 A2995 RMK A01 T03920146  RH  023%=      5-min Rain = 0
KMD1 141924Z 22010KT 39/15 A2995 RMK A01 T03900148  RH  024%=      5-min Rain = 0
KMD1 141925Z 23008KT 39/15 A2995 RMK A01 T03890149  RH  024%=      5-min Rain = 0
KMD1 141926Z 21007KT 39/15 A2995 RMK A01 T03890149  RH  024%=      5-min Rain = 0
KMD1 141927Z 22002KT 39/15 A2995 RMK A01 T03900150  RH  024%=      5-min Rain = 0
KMD1 141928Z 24002KT 39/15 A2995 RMK A01 T03900150  RH  024%=      5-min Rain = 0
KMD1 141929Z 25004KT 39/15 A2995 RMK A01 T03900149  RH  024%=      5-min Rain = 0
KMD1 141930Z 19005G13KT 39/15 A2995 RMK A01 T03890147  RH  024%=      5-min Rain = 0
KMD1 141931Z 21008KT 39/14 A2995 RMK A01 T03900144  RH  023%=      5-min Rain = 0
KMD1 141932Z 18008KT 39/14 A2995 RMK A01 T03900142  RH  023%=      5-min Rain = 0
KMD1 141933Z 17009KT 39/14 A2995 RMK A01 T03890142  RH  023%=      5-min Rain = 0
KMD1 141934Z 18008KT 39/14 A2995 RMK A01 T03910142  RH  023%=      5-min Rain = 0
KMD1 141935Z 17009KT 40/14 A2995 RMK A01 T03960143  RH  023%=      5-min Rain = 0
KMD1 141936Z 19007KT 40/14 A2995 RMK A01 T03990143  RH  022%=      5-min Rain = 0
KMD1 141937Z 17009KT 40/14 A2995 RMK A01 T03980144  RH  022%=      5-min Rain = 0
KMD1 141938Z 15008KT 40/14 A2994 RMK A01 T03980143  RH  022%=      5-min Rain = 0
KMD1 141939Z 15007KT 40/14 A2994 RMK A01 T03960144  RH  023%=      5-min Rain = 0
KMD1 141940Z 15006KT 40/14 A2994 RMK A01 T03950143  RH  023%=      5-min Rain = 0
KMD1 141941Z 17006KT 40/14 A2994 RMK A01 T03960144  RH  023%=      5-min Rain = 0
KMD1 141942Z 18008KT 40/15 A2994 RMK A01 T03960145  RH  023%=      5-min Rain = 0
KMD1 141943Z 18008KT 40/14 A2994 RMK A01 T03960142  RH  022%=      5-min Rain = 0
KMD1 141944Z 18006KT 39/14 A2994 RMK A01 T03940139  RH  022%=      5-min Rain = 0
KMD1 141945Z 17005KT 39/14 A2994 RMK A01 T03910141  RH  023%=      5-min Rain = 0
KMD1 141946Z 17004KT 39/14 A2994 RMK A01 T03900141  RH  023%=      5-min Rain = 0
KMD1 141947Z 20005KT 39/14 A2994 RMK A01 T03920142  RH  023%=      5-min Rain = 0
KMD1 141948Z 23003KT 39/14 A2994 RMK A01 T03940139  RH  022%=      5-min Rain = 0
KMD1 141949Z 20007KT 40/14 A2994 RMK A01 T03950138  RH  022%=      5-min Rain = 0
KMD1 141950Z 21012KT 40/14 A2994 RMK A01 T03970140  RH  022%=      5-min Rain = 0
KMD1 141951Z 21009KT 40/14 A2994 RMK A01 T03950141  RH  022%=      5-min Rain = 0
KMD1 141952Z 21007KT 39/14 A2994 RMK A01 T03930143  RH  023%=      5-min Rain = 0
KMD1 141953Z 21007KT 39/14 A2994 RMK A01 T03930144  RH  023%=      5-min Rain = 0
KMD1 141954Z 21006KT 39/14 A2994 RMK A01 T03930144  RH  023%=      5-min Rain = 0
KMD1 141955Z 19006KT 39/14 A2994 RMK A01 T03930143  RH  023%=      5-min Rain = 0
KMD1 141956Z 19006KT 39/14 A2993 RMK A01 T03930143  RH  023%=      5-min Rain = 0
KMD1 141957Z 20005KT 39/14 A2993 RMK A01 T03940142  RH  023%=      5-min Rain = 0
KMD1 141958Z 25008KT 40/14 A2993 RMK A01 T03980141  RH  022%=      5-min Rain = 0
KMD1 141959Z 26005KT 40/14 A2993 RMK A01 T03960137  RH  022%=      5-min Rain = 0
KMD1 142000Z 28003KT 39/14 A2993 RMK A01 T03930139  RH  022%=      5-min Rain = 0
KMD1 142001Z 26002KT 39/14 A2993 RMK A01 T03930139  RH  022%=      5-min Rain = 0
KMD1 142002Z 21003KT 40/14 A2993 RMK A01 T03950138  RH  022%=      5-min Rain = 0
KMD1 142003Z 21008KT 40/13 A2993 RMK A01 T03970130  RH  021%=      5-min Rain = 0
KMD1 142004Z 22006KT 40/13 A2993 RMK A01 T03980128  RH  020%=      5-min Rain = 0
KMD1 142005Z 22005KT 40/13 A2993 RMK A01 T03990133  RH  021%=      5-min Rain = 0
KMD1 142006Z 20009KT 40/14 A2993 RMK A01 T04020135  RH  021%=      5-min Rain = 0
KMD1 142007Z 19011KT 40/14 A2993 RMK A01 T04030136  RH  021%=      5-min Rain = 0
KMD1 142008Z 19009KT 40/13 A2993 RMK A01 T04020132  RH  020%=      5-min Rain = 0
KMD1 142009Z 18008KT 40/13 A2993 RMK A01 T04010128  RH  020%=      5-min Rain = 0
KMD1 142010Z 19010KT 40/13 A2993 RMK A01 T04000134  RH  021%=      5-min Rain = 0
KMD1 142011Z 19010KT 40/14 A2993 RMK A01 T03990138  RH  021%=      5-min Rain = 0
KMD1 142012Z 19008KT 40/14 A2993 RMK A01 T03990137  RH  021%=      5-min Rain = 0
KMD1 142013Z 19006KT 40/13 A2993 RMK A01 T04000134  RH  021%=      5-min Rain = 0
KMD1 142014Z 19003KT 40/13 A2993 RMK A01 T03990134  RH  021%=      5-min Rain = 0
KMD1 142015Z 02001KT 40/13 A2993 RMK A01 T03950130  RH  021%=      5-min Rain = 0
KMD1 142016Z 19004G10KT 39/13 A2993 RMK A01 T03930131  RH  021%=      5-min Rain = 0
KMD1 142017Z 16009G15KT 40/13 A2993 RMK A01 T03950134  RH  021%=      5-min Rain = 0
KMD1 142018Z 20008KT 40/13 A2993 RMK A01 T03970134  RH  021%=      5-min Rain = 0
KMD1 142019Z 20007KT 40/14 A2993 RMK A01 T04010135  RH  021%=      5-min Rain = 0
KMD1 142020Z 21008KT 40/13 A2993 RMK A01 T04010132  RH  020%=      5-min Rain = 0
KMD1 142021Z 21006KT 40/13 A2992 RMK A01 T03980133  RH  021%=      5-min Rain = 0
KMD1 142022Z 20007KT 40/12 A2992 RMK A01 T03990124  RH  020%=      5-min Rain = 0
KMD1 142023Z 20005KT 40/13 A2992 RMK A01 T03990127  RH  020%=      5-min Rain = 0
KMD1 142024Z 19001KT 40/13 A2992 RMK A01 T04000130  RH  020%=      5-min Rain = 0
KMD1 142025Z 16000KT 40/13 A2992 RMK A01 T04000131  RH  020%=      5-min Rain = 0
KMD1 142026Z 19002KT 41/13 A2992 RMK A01 T04050131  RH  020%=      5-min Rain = 0
KMD1 142027Z 22001KT 41/13 A2992 RMK A01 T04050133  RH  020%=      5-min Rain = 0
KMD1 142028Z 22005G11KT 41/13 A2992 RMK A01 T04060132  RH  020%=      5-min Rain = 0
KMD1 142029Z 19008KT 41/13 A2992 RMK A01 T04050127  RH  019%=      5-min Rain = 0
KMD1 142030Z 20006KT 41/13 A2992 RMK A01 T04050126  RH  019%=      5-min Rain = 0
KMD1 142031Z 20008KT 41/13 A2992 RMK A01 T04060126  RH  019%=      5-min Rain = 0
KMD1 142032Z 20007KT 41/13 A2992 RMK A01 T04050128  RH  020%=      5-min Rain = 0
KMD1 142033Z 22008KT 40/13 A2991 RMK A01 T04030130  RH  020%=      5-min Rain = 0
KMD1 142034Z 20010KT 41/13 A2991 RMK A01 T04050130  RH  020%=      5-min Rain = 0
KMD1 142035Z 20011KT 41/13 A2991 RMK A01 T04050132  RH  020%=      5-min Rain = 0
KMD1 142036Z 20010KT 40/13 A2991 RMK A01 T04020134  RH  021%=      5-min Rain = 0
KMD1 142037Z 20007KT 40/14 A2991 RMK A01 T04020136  RH  021%=      5-min Rain = 0
KMD1 142038Z 20006KT 40/13 A2991 RMK A01 T04010132  RH  020%=      5-min Rain = 0
KMD1 142039Z 19008KT 40/13 A2991 RMK A01 T04020134  RH  021%=      5-min Rain = 0
KMD1 142040Z 20004KT 40/13 A2991 RMK A01 T04040133  RH  020%=      5-min Rain = 0
KMD1 142041Z 19005KT 40/13 A2991 RMK A01 T04040134  RH  020%=      5-min Rain = 0
KMD1 142042Z 19006KT 40/14 A2991 RMK A01 T04040135  RH  020%=      5-min Rain = 0
KMD1 142043Z 20005KT 40/14 A2991 RMK A01 T04020137  RH  021%=      5-min Rain = 0
KMD1 142044Z 17010KT 40/14 A2991 RMK A01 T04010137  RH  021%=      5-min Rain = 0
KMD1 142045Z 18009KT 40/13 A2991 RMK A01 T04040133  RH  020%=      5-min Rain = 0
KMD1 142046Z 17008KT 41/13 A2991 RMK A01 T04050134  RH  020%=      5-min Rain = 0
KMD1 142047Z 16003KT 40/13 A2991 RMK A01 T04010131  RH  020%=      5-min Rain = 0
KMD1 142048Z 13002KT 40/13 A2991 RMK A01 T03970131  RH  021%=      5-min Rain = 0
KMD1 142049Z 25003KT 40/13 A2991 RMK A01 T03980133  RH  021%=      5-min Rain = 0
KMD1 142050Z 23003KT 40/13 A2991 RMK A01 T04030134  RH  021%=      5-min Rain = 0
KMD1 142051Z 19007KT 41/14 A2991 RMK A01 T04050136  RH  020%=      5-min Rain = 0
KMD1 142052Z 16008KT 41/14 A2991 RMK A01 T04070136  RH  020%=      5-min Rain = 0
KMD1 142053Z 17009KT 41/14 A2991 RMK A01 T04100136  RH  020%=      5-min Rain = 0
KMD1 142054Z 18009KT 41/13 A2991 RMK A01 T04080134  RH  020%=      5-min Rain = 0
KMD1 142055Z 17007KT 40/13 A2991 RMK A01 T04040131  RH  020%=      5-min Rain = 0
KMD1 142056Z 16009KT 40/13 A299 RMK A01 T04020131  RH  020%=      5-min Rain = 0
KMD1 142057Z 17011KT 40/13 A299 RMK A01 T04030128  RH  020%=      5-min Rain = 0
KMD1 142058Z 17008KT 41/13 A2991 RMK A01 T04050127  RH  019%=      5-min Rain = 0
KMD1 142059Z 16005KT 41/13 A2991 RMK A01 T04050128  RH  019%=      5-min Rain = 0
KMD1 142100Z 20003KT 41/13 A2991 RMK A01 T04050127  RH  019%=      5-min Rain = 0
KMD1 142101Z 24004KT 41/12 A299 RMK A01 T04060122  RH  019%=      5-min Rain = 0
KMD1 142102Z 23006KT 41/12 A299 RMK A01 T04070121  RH  018%=      5-min Rain = 0
KMD1 142103Z 24006KT 41/12 A299 RMK A01 T04070119  RH  018%=      5-min Rain = 0
KMD1 142104Z 25009KT 41/12 A299 RMK A01 T04090117  RH  018%=      5-min Rain = 0
KMD1 142105Z 25010KT 41/12 A299 RMK A01 T04110115  RH  017%=      5-min Rain = 0
KMD1 142106Z 27009KT 41/11 A299 RMK A01 T04090111  RH  017%=      5-min Rain = 0
KMD1 142107Z 25007KT 41/11 A299 RMK A01 T04070114  RH  018%=      5-min Rain = 0
KMD1 142108Z 23008KT 41/12 A299 RMK A01 T04050120  RH  018%=      5-min Rain = 0
KMD1 142109Z 23006KT 41/12 A299 RMK A01 T04050124  RH  019%=      5-min Rain = 0
KMD1 142110Z 19006KT 41/13 A299 RMK A01 T04100134  RH  020%=      5-min Rain = 0
KMD1 142111Z 20007KT 41/13 A299 RMK A01 T04120133  RH  019%=      5-min Rain = 0
KMD1 142112Z 21004KT 41/13 A299 RMK A01 T04090127  RH  019%=      5-min Rain = 0
KMD1 142113Z 21004KT 41/13 A299 RMK A01 T04050125  RH  019%=      5-min Rain = 0
KMD1 142114Z 22002KT 40/12 A299 RMK A01 T04030123  RH  019%=      5-min Rain = 0
KMD1 142115Z 19005G10KT 40/13 A299 RMK A01 T04040127  RH  019%=      5-min Rain = 0
KMD1 142116Z 19006KT 41/13 A299 RMK A01 T04060130  RH  020%=      5-min Rain = 0
KMD1 142117Z 19004KT 41/13 A299 RMK A01 T04050130  RH  020%=      5-min Rain = 0
KMD1 142118Z 23004KT 41/13 A299 RMK A01 T04050130  RH  020%=      5-min Rain = 0
KMD1 142119Z 24005KT 41/12 A299 RMK A01 T04070122  RH  018%=      5-min Rain = 0
KMD1 142120Z 25006KT 41/12 A299 RMK A01 T04070122  RH  019%=      5-min Rain = 0
KMD1 142121Z 24009KT 41/13 A299 RMK A01 T04080126  RH  019%=      5-min Rain = 0
KMD1 142122Z 25009KT 41/13 A299 RMK A01 T04080127  RH  019%=      5-min Rain = 0
KMD1 142123Z 26006KT 41/13 A299 RMK A01 T04080126  RH  019%=      5-min Rain = 0
KMD1 142124Z 29005KT 41/13 A299 RMK A01 T04080126  RH  019%=      5-min Rain = 0
KMD1 142125Z 28006KT 41/13 A299 RMK A01 T04060126  RH  019%=      5-min Rain = 0
KMD1 142126Z 29007KT 41/13 A299 RMK A01 T04070131  RH  020%=      5-min Rain = 0
KMD1 142127Z 23009KT 41/13 A299 RMK A01 T04090130  RH  019%=      5-min Rain = 0
KMD1 142128Z 22010KT 41/12 A299 RMK A01 T04090123  RH  019%=      5-min Rain = 0
KMD1 142129Z 21009G15KT 41/12 A299 RMK A01 T04090123  RH  019%=      5-min Rain = 0
KMD1 142130Z 22009KT 41/12 A2989 RMK A01 T04080122  RH  018%=      5-min Rain = 0
KMD1 142131Z 23009KT 41/12 A2989 RMK A01 T04070121  RH  018%=      5-min Rain = 0
KMD1 142132Z 24010KT 41/12 A2989 RMK A01 T04060120  RH  018%=      5-min Rain = 0
KMD1 142133Z 25009KT 41/12 A2989 RMK A01 T04060117  RH  018%=      5-min Rain = 0
KMD1 142134Z 25007KT 41/12 A2989 RMK A01 T04070115  RH  018%=      5-min Rain = 0
KMD1 142135Z 23008KT 41/11 A2989 RMK A01 T04090114  RH  017%=      5-min Rain = 0
KMD1 142136Z 20008KT 41/12 A2989 RMK A01 T04100116  RH  018%=      5-min Rain = 0
KMD1 142137Z 22006KT 41/12 A2989 RMK A01 T04100119  RH  018%=      5-min Rain = 0
KMD1 142138Z 20004KT 41/12 A2989 RMK A01 T04080120  RH  018%=      5-min Rain = 0
KMD1 142139Z 20002KT 41/12 A2989 RMK A01 T04070124  RH  019%=      5-min Rain = 0
KMD1 142140Z 19002KT 41/12 A2989 RMK A01 T04060118  RH  018%=      5-min Rain = 0
KMD1 142141Z 19001KT 41/11 A2989 RMK A01 T04060111  RH  017%=      5-min Rain = 0
KMD1 142142Z 21002KT 41/11 A2989 RMK A01 T04060110  RH  017%=      5-min Rain = 0
KMD1 142143Z 20004KT 41/11 A2989 RMK A01 T04080112  RH  017%=      5-min Rain = 0
KMD1 142144Z 25007G12KT 41/12 A2989 RMK A01 T04110118  RH  018%=      5-min Rain = 0
KMD1 142145Z 23005KT 41/12 A2989 RMK A01 T04100120  RH  018%=      5-min Rain = 0
KMD1 142146Z 22009KT 41/13 A2989 RMK A01 T04100126  RH  019%=      5-min Rain = 0
KMD1 142147Z 21010KT 41/13 A2989 RMK A01 T04130127  RH  019%=      5-min Rain = 0
KMD1 142148Z 19007KT 41/13 A2989 RMK A01 T04110128  RH  019%=      5-min Rain = 0
KMD1 142149Z 19007KT 41/13 A2989 RMK A01 T04090129  RH  019%=      5-min Rain = 0
KMD1 142150Z 20005KT 41/13 A2989 RMK A01 T04090128  RH  019%=      5-min Rain = 0
KMD1 142151Z 25005KT 41/13 A2989 RMK A01 T04100127  RH  019%=      5-min Rain = 0
KMD1 142152Z 26003KT 41/13 A2989 RMK A01 T04110126  RH  019%=      5-min Rain = 0
KMD1 142153Z 24004KT 41/13 A2989 RMK A01 T04140127  RH  019%=      5-min Rain = 0
KMD1 142154Z 22004KT 42/13 A2989 RMK A01 T04170126  RH  018%=      5-min Rain = 0
KMD1 142155Z 20004KT 42/13 A2989 RMK A01 T04160125  RH  018%=      5-min Rain = 0
KMD1 142156Z 22003KT 41/12 A2989 RMK A01 T04140122  RH  018%=      5-min Rain = 0
KMD1 142157Z 23007KT 41/12 A2989 RMK A01 T04130122  RH  018%=      5-min Rain = 0
KMD1 142158Z 22004KT 41/12 A2989 RMK A01 T04130117  RH  017%=      5-min Rain = 0
KMD1 142159Z 24004KT 41/12 A2989 RMK A01 T04130118  RH  018%=      5-min Rain = 0
KMD1 142200Z 24007KT 41/12 A2989 RMK A01 T04130118  RH  018%=      5-min Rain = 0
KMD1 142201Z 26006KT 41/12 A2988 RMK A01 T04130116  RH  017%=      5-min Rain = 0
KMD1 142202Z 24005KT 41/12 A2988 RMK A01 T04110117  RH  018%=      5-min Rain = 0
KMD1 142203Z 23007KT 41/12 A2988 RMK A01 T04120115  RH  017%=      5-min Rain = 0
KMD1 142204Z 20005KT 41/12 A2988 RMK A01 T04120118  RH  018%=      5-min Rain = 0
KMD1 142205Z 20005KT 41/11 A2988 RMK A01 T04140107  RH  016%=      5-min Rain = 0
KMD1 142206Z 21007KT 41/11 A2988 RMK A01 T04130108  RH  016%=      5-min Rain = 0
KMD1 142207Z 20009KT 41/11 A2988 RMK A01 T04120112  RH  017%=      5-min Rain = 0
KMD1 142208Z 19009KT 41/11 A2988 RMK A01 T04130107  RH  016%=      5-min Rain = 0
KMD1 142209Z 20009KT 41/11 A2988 RMK A01 T04110107  RH  016%=      5-min Rain = 0
KMD1 142210Z 20008KT 41/11 A2988 RMK A01 T04100110  RH  017%=      5-min Rain = 0
KMD1 142211Z 19004KT 41/11 A2988 RMK A01 T04080112  RH  017%=      5-min Rain = 0
KMD1 142212Z 18006KT 41/11 A2988 RMK A01 T04080113  RH  017%=      5-min Rain = 0
KMD1 142213Z 19008KT 41/12 A2988 RMK A01 T04080120  RH  018%=      5-min Rain = 0
KMD1 142214Z 19008G14KT 41/13 A2988 RMK A01 T04110126  RH  019%=      5-min Rain = 0
KMD1 142215Z 21010KT 41/13 A2988 RMK A01 T04130126  RH  018%=      5-min Rain = 0
KMD1 142216Z 22009KT 41/13 A2988 RMK A01 T04110126  RH  019%=      5-min Rain = 0
KMD1 142217Z 20006KT 41/13 A2988 RMK A01 T04110125  RH  018%=      5-min Rain = 0
KMD1 142218Z 22007KT 41/12 A2988 RMK A01 T04120124  RH  018%=      5-min Rain = 0
KMD1 142219Z 22009KT 41/13 A2988 RMK A01 T04110125  RH  018%=      5-min Rain = 0
KMD1 142220Z 23007KT 41/13 A2988 RMK A01 T04100125  RH  019%=      5-min Rain = 0
KMD1 142221Z 23008KT 41/13 A2988 RMK A01 T04090125  RH  019%=      5-min Rain = 0
KMD1 142222Z 23008KT 41/12 A2988 RMK A01 T04090122  RH  018%=      5-min Rain = 0
KMD1 142223Z 24007KT 41/12 A2988 RMK A01 T04100121  RH  018%=      5-min Rain = 0
KMD1 142224Z 23004G9KT 41/12 A2988 RMK A01 T04100120  RH  018%=      5-min Rain = 0
KMD1 142225Z 24005KT 41/12 A2988 RMK A01 T04090122  RH  018%=      5-min Rain = 0
KMD1 142226Z 25008KT 41/12 A2987 RMK A01 T04110121  RH  018%=      5-min Rain = 0
KMD1 142227Z 25005KT 41/12 A2987 RMK A01 T04110120  RH  018%=      5-min Rain = 0
KMD1 142228Z 25006KT 41/12 A2987 RMK A01 T04120121  RH  018%=      5-min Rain = 0
KMD1 142229Z 24006KT 41/12 A2987 RMK A01 T04140121  RH  018%=      5-min Rain = 0
KMD1 142230Z 23007KT 41/12 A2987 RMK A01 T04140121  RH  018%=      5-min Rain = 0
KMD1 142231Z 22007KT 41/12 A2987 RMK A01 T04120119  RH  018%=      5-min Rain = 0
KMD1 142232Z 22007KT 41/12 A2987 RMK A01 T04090119  RH  018%=      5-min Rain = 0
KMD1 142233Z 22005KT 41/12 A2987 RMK A01 T04090117  RH  018%=      5-min Rain = 0
KMD1 142234Z 24003KT 41/12 A2987 RMK A01 T04090117  RH  018%=      5-min Rain = 0
KMD1 142235Z 28001KT 41/12 A2987 RMK A01 T04070117  RH  018%=      5-min Rain = 0
KMD1 142236Z 06001KT 41/11 A2987 RMK A01 T04060114  RH  018%=      5-min Rain = 0
KMD1 142237Z 05002KT 41/11 A2987 RMK A01 T04050113  RH  018%=      5-min Rain = 0
KMD1 142238Z 07001KT 41/11 A2987 RMK A01 T04050112  RH  018%=      5-min Rain = 0
KMD1 142239Z 07000KT 41/11 A2987 RMK A01 T04050112  RH  018%=      5-min Rain = 0
KMD1 142240Z 28003KT 41/11 A2987 RMK A01 T04060113  RH  018%=      5-min Rain = 0
KMD1 142241Z 19004KT 41/12 A2987 RMK A01 T04100117  RH  018%=      5-min Rain = 0
KMD1 142242Z 20008KT 41/12 A2987 RMK A01 T04120123  RH  018%=      5-min Rain = 0
KMD1 142243Z 22004G10KT 41/12 A2987 RMK A01 T04110122  RH  018%=      5-min Rain = 0
KMD1 142244Z 25009KT 41/12 A2987 RMK A01 T04090119  RH  018%=      5-min Rain = 0
KMD1 142245Z 24007KT 41/12 A2987 RMK A01 T04090117  RH  018%=      5-min Rain = 0
KMD1 142246Z 22005KT 41/12 A2987 RMK A01 T04080118  RH  018%=      5-min Rain = 0
KMD1 142247Z 19003KT 41/12 A2987 RMK A01 T04060119  RH  018%=      5-min Rain = 0
KMD1 142248Z 21003KT 41/12 A2987 RMK A01 T04070120  RH  018%=      5-min Rain = 0
KMD1 142249Z 25003KT 41/12 A2987 RMK A01 T04070119  RH  018%=      5-min Rain = 0
KMD1 142250Z 22002KT 41/12 A2987 RMK A01 T04080121  RH  018%=      5-min Rain = 0
KMD1 142251Z 23002KT 41/12 A2987 RMK A01 T04090120  RH  018%=      5-min Rain = 0
KMD1 142252Z 23002KT 41/12 A2987 RMK A01 T04110121  RH  018%=      5-min Rain = 0
KMD1 142253Z 23001KT 41/12 A2987 RMK A01 T04110121  RH  018%=      5-min Rain = 0
KMD1 142254Z 21004KT 41/12 A2987 RMK A01 T04120122  RH  018%=      5-min Rain = 0
KMD1 142255Z 22005G10KT 41/12 A2987 RMK A01 T04110122  RH  018%=      5-min Rain = 0
KMD1 142256Z 24008KT 41/12 A2987 RMK A01 T04110122  RH  018%=      5-min Rain = 0
KMD1 142257Z 23006KT 41/12 A2987 RMK A01 T04110121  RH  018%=      5-min Rain = 0
KMD1 142258Z 22006KT 41/12 A2987 RMK A01 T04120122  RH  018%=      5-min Rain = 0
KMD1 142259Z 23006KT 41/12 A2987 RMK A01 T04140120  RH  018%=      5-min Rain = 0
KMD1 142300Z 21005KT 41/12 A2987 RMK A01 T04140120  RH  018%=      5-min Rain = 0
KMD1 142301Z 21003KT 41/12 A2987 RMK A01 T04140119  RH  017%=      5-min Rain = 0
KMD1 142302Z 19003KT 41/12 A2987 RMK A01 T04120120  RH  018%=      5-min Rain = 0
KMD1 142303Z 19006KT 41/12 A2987 RMK A01 T04120121  RH  018%=      5-min Rain = 0
KMD1 142304Z 19005KT 41/12 A2987 RMK A01 T04130115  RH  017%=      5-min Rain = 0
KMD1 142305Z 18004KT 41/12 A2987 RMK A01 T04110115  RH  017%=      5-min Rain = 0
KMD1 142306Z 19003KT 41/12 A2987 RMK A01 T04100118  RH  018%=      5-min Rain = 0
KMD1 142307Z 19003KT 41/12 A2987 RMK A01 T04120118  RH  018%=      5-min Rain = 0
KMD1 142308Z 15001KT 41/12 A2987 RMK A01 T04120117  RH  018%=      5-min Rain = 0
KMD1 142309Z 15000KT 41/12 A2987 RMK A01 T04100117  RH  018%=      5-min Rain = 0
KMD1 142310Z 17001KT 41/12 A2987 RMK A01 T04100118  RH  018%=      5-min Rain = 0
KMD1 142311Z 21003KT 41/12 A2987 RMK A01 T04120118  RH  018%=      5-min Rain = 0
KMD1 142312Z 20005KT 41/12 A2987 RMK A01 T04130117  RH  017%=      5-min Rain = 0
KMD1 142313Z 19007KT 41/11 A2987 RMK A01 T04120114  RH  017%=      5-min Rain = 0
KMD1 142314Z 18007KT 41/11 A2986 RMK A01 T04090110  RH  017%=      5-min Rain = 0
KMD1 142315Z 18009KT 41/11 A2986 RMK A01 T04070110  RH  017%=      5-min Rain = 0
KMD1 142316Z 20011KT 41/11 A2986 RMK A01 T04080111  RH  017%=      5-min Rain = 0
KMD1 142317Z 20009KT 41/11 A2986 RMK A01 T04080110  RH  017%=      5-min Rain = 0
KMD1 142318Z 20007KT 41/11 A2986 RMK A01 T04080112  RH  017%=      5-min Rain = 0
KMD1 142319Z 20007KT 41/11 A2986 RMK A01 T04080111  RH  017%=      5-min Rain = 0
KMD1 142320Z 20007KT 41/11 A2986 RMK A01 T04080113  RH  017%=      5-min Rain = 0
KMD1 142321Z 22009KT 41/11 A2986 RMK A01 T04090114  RH  017%=      5-min Rain = 0
KMD1 142322Z 23008KT 41/11 A2987 RMK A01 T04090113  RH  017%=      5-min Rain = 0
KMD1 142323Z 22008KT 41/11 A2987 RMK A01 T04080114  RH  018%=      5-min Rain = 0
KMD1 142324Z 22008KT 41/12 A2987 RMK A01 T04080115  RH  018%=      5-min Rain = 0
KMD1 142325Z 21008KT 41/12 A2986 RMK A01 T04070118  RH  018%=      5-min Rain = 0
KMD1 142326Z 18008G13KT 41/12 A2986 RMK A01 T04080119  RH  018%=      5-min Rain = 0
KMD1 142327Z 17011KT 41/12 A2986 RMK A01 T04080119  RH  018%=      5-min Rain = 0
KMD1 142328Z 16011KT 41/12 A2986 RMK A01 T04070118  RH  018%=      5-min Rain = 0
KMD1 142329Z 18009KT 41/12 A2987 RMK A01 T04070118  RH  018%=      5-min Rain = 0
KMD1 142330Z 18006KT 41/12 A2986 RMK A01 T04070118  RH  018%=      5-min Rain = 0
KMD1 142331Z 18007KT 41/12 A2986 RMK A01 T04060119  RH  018%=      5-min Rain = 0
KMD1 142332Z 18010KT 41/12 A2986 RMK A01 T04070118  RH  018%=      5-min Rain = 0
KMD1 142333Z 18012KT 41/12 A2986 RMK A01 T04060116  RH  018%=      5-min Rain = 0
KMD1 142334Z 18009KT 41/12 A2986 RMK A01 T04060115  RH  018%=      5-min Rain = 0
KMD1 142335Z 18008KT 41/12 A2986 RMK A01 T04050116  RH  018%=      5-min Rain = 0
KMD1 142336Z 18008KT 41/12 A2986 RMK A01 T04050115  RH  018%=      5-min Rain = 0
KMD1 142337Z 17008KT 41/12 A2986 RMK A01 T04050116  RH  018%=      5-min Rain = 0
KMD1 142338Z 17005KT 41/12 A2986 RMK A01 T04070116  RH  018%=      5-min Rain = 0
KMD1 142339Z 15007KT 41/12 A2986 RMK A01 T04070116  RH  018%=      5-min Rain = 0
KMD1 142340Z 18006KT 41/12 A2986 RMK A01 T04080116  RH  018%=      5-min Rain = 0
KMD1 142341Z 18007KT 41/12 A2986 RMK A01 T04080116  RH  018%=      5-min Rain = 0
KMD1 142342Z 18008KT 41/12 A2986 RMK A01 T04080116  RH  018%=      5-min Rain = 0
KMD1 142343Z 19009KT 41/12 A2986 RMK A01 T04070115  RH  018%=      5-min Rain = 0
KMD1 142344Z 19010KT 41/12 A2986 RMK A01 T04060116  RH  018%=      5-min Rain = 0
KMD1 142345Z 18008KT 41/12 A2986 RMK A01 T04050115  RH  018%=      5-min Rain = 0
KMD1 142346Z 19009KT 41/12 A2986 RMK A01 T04050115  RH  018%=      5-min Rain = 0
KMD1 142347Z 18010KT 41/12 A2986 RMK A01 T04050116  RH  018%=      5-min Rain = 0
KMD1 142348Z 17008KT 41/12 A2986 RMK A01 T04050115  RH  018%=      5-min Rain = 0
KMD1 142349Z 17009KT 40/12 A2986 RMK A01 T04040115  RH  018%=      5-min Rain = 0
KMD1 142350Z 17010KT 41/12 A2986 RMK A01 T04050115  RH  018%=      5-min Rain = 0
KMD1 142351Z 16006KT 40/11 A2986 RMK A01 T04040114  RH  018%=      5-min Rain = 0
KMD1 142352Z 17008KT 40/11 A2986 RMK A01 T04040114  RH  018%=      5-min Rain = 0
KMD1 142353Z 16007KT 40/11 A2986 RMK A01 T04040113  RH  018%=      5-min Rain = 0
KMD1 142354Z 15007KT 40/11 A2986 RMK A01 T04030114  RH  018%=      5-min Rain = 0
KMD1 142355Z 15010KT 40/11 A2986 RMK A01 T04040114  RH  018%=      5-min Rain = 0
KMD1 142356Z 15008KT 40/11 A2986 RMK A01 T04040114  RH  018%=      5-min Rain = 0
KMD1 142357Z 16007KT 40/11 A2986 RMK A01 T04040114  RH  018%=      5-min Rain = 0
KMD1 142358Z 17007KT 41/12 A2986 RMK A01 T04050115  RH  018%=      5-min Rain = 0
KMD1 142359Z 17006KT 41/11 A2986 RMK A01 T04060114  RH  018%=      5-min Rain = 0
KMD1 150000Z 18005KT 41/12 A2986 RMK A01 T04050117  RH  018%=      5-min Rain = 0
KMD1 150001Z 18007KT 41/12 A2986 RMK A01 T04050117  RH  018%=      5-min Rain = 0
KMD1 150002Z 18007KT 40/12 A2986 RMK A01 T04040115  RH  018%=      5-min Rain = 0
KMD1 150003Z 19010KT 40/12 A2986 RMK A01 T04030117  RH  018%=      5-min Rain = 0
KMD1 150004Z 20008KT 40/12 A2986 RMK A01 T04020117  RH  018%=      5-min Rain = 0
KMD1 150005Z 19005KT 40/12 A2986 RMK A01 T04010118  RH  019%=      5-min Rain = 0
KMD1 150006Z 19008KT 40/12 A2986 RMK A01 T04010119  RH  019%=      5-min Rain = 0
KMD1 150007Z 18009KT 40/12 A2986 RMK A01 T04020119  RH  019%=      5-min Rain = 0
KMD1 150008Z 19008KT 40/12 A2986 RMK A01 T04010119  RH  019%=      5-min Rain = 0
KMD1 150009Z 20007KT 40/12 A2986 RMK A01 T04010120  RH  019%=      5-min Rain = 0
KMD1 150010Z 21009KT 40/12 A2986 RMK A01 T04000121  RH  019%=      5-min Rain = 0
KMD1 150011Z 19009KT 40/12 A2987 RMK A01 T04000121  RH  019%=      5-min Rain = 0
KMD1 150012Z 19009KT 40/12 A2987 RMK A01 T03990121  RH  019%=      5-min Rain = 0
KMD1 150013Z 19009KT 40/12 A2986 RMK A01 T03990121  RH  019%=      5-min Rain = 0
KMD1 150014Z 18010KT 40/12 A2986 RMK A01 T03990121  RH  019%=      5-min Rain = 0
KMD1 150015Z 18010KT 40/12 A2987 RMK A01 T03980119  RH  019%=      5-min Rain = 0
KMD1 150016Z 18009KT 40/12 A2987 RMK A01 T03980119  RH  019%=      5-min Rain = 0
KMD1 150017Z 17008KT 40/12 A2987 RMK A01 T03980119  RH  019%=      5-min Rain = 0
KMD1 150018Z 16009KT 40/12 A2987 RMK A01 T03980119  RH  019%=      5-min Rain = 0
KMD1 150019Z 17008KT 40/12 A2987 RMK A01 T03970118  RH  019%=      5-min Rain = 0
KMD1 150020Z 17010KT 40/12 A2987 RMK A01 T03970118  RH  019%=      5-min Rain = 0
KMD1 150021Z 17008KT 40/12 A2987 RMK A01 T03970118  RH  019%=      5-min Rain = 0
KMD1 150022Z 17007KT 40/12 A2987 RMK A01 T03970118  RH  019%=      5-min Rain = 0
KMD1 150023Z 17006KT 40/12 A2987 RMK A01 T03970118  RH  019%=      5-min Rain = 0
KMD1 150024Z 17005KT 40/12 A2987 RMK A01 T03980118  RH  019%=      5-min Rain = 0
KMD1 150025Z 18006KT 40/12 A2987 RMK A01 T03980119  RH  019%=      5-min Rain = 0
KMD1 150026Z 20006KT 40/12 A2987 RMK A01 T03980118  RH  019%=      5-min Rain = 0
KMD1 150027Z 19006KT 40/12 A2987 RMK A01 T03970120  RH  019%=      5-min Rain = 0
KMD1 150028Z 20005KT 40/12 A2987 RMK A01 T03970120  RH  019%=      5-min Rain = 0
KMD1 150029Z 20007KT 40/12 A2987 RMK A01 T03970121  RH  020%=      5-min Rain = 0
KMD1 150030Z 21006KT 40/12 A2987 RMK A01 T03960120  RH  019%=      5-min Rain = 0
KMD1 150031Z 20005KT 40/12 A2987 RMK A01 T03950120  RH  020%=      5-min Rain = 0
KMD1 150032Z 20006KT 39/12 A2987 RMK A01 T03940122  RH  020%=      5-min Rain = 0
KMD1 150033Z 20007KT 39/12 A2987 RMK A01 T03940122  RH  020%=      5-min Rain = 0
KMD1 150034Z 21007KT 39/12 A2987 RMK A01 T03930118  RH  019%=      5-min Rain = 0
KMD1 150035Z 23003KT 39/12 A2987 RMK A01 T03930116  RH  019%=      5-min Rain = 0
KMD1 150036Z 19003KT 39/12 A2987 RMK A01 T03930117  RH  019%=      5-min Rain = 0
KMD1 150037Z 18006KT 39/12 A2987 RMK A01 T03940119  RH  020%=      5-min Rain = 0
KMD1 150038Z 18006KT 39/12 A2987 RMK A01 T03940118  RH  019%=      5-min Rain = 0
KMD1 150039Z 18004KT 39/12 A2987 RMK A01 T03930118  RH  019%=      5-min Rain = 0
KMD1 150040Z 19006KT 39/12 A2987 RMK A01 T03930119  RH  020%=      5-min Rain = 0
KMD1 150041Z 19006KT 39/12 A2987 RMK A01 T03920119  RH  020%=      5-min Rain = 0
KMD1 150042Z 18007KT 39/12 A2987 RMK A01 T03920118  RH  020%=      5-min Rain = 0
KMD1 150043Z 19008KT 39/12 A2987 RMK A01 T03910117  RH  019%=      5-min Rain = 0
KMD1 150044Z 19008KT 39/12 A2987 RMK A01 T03910117  RH  020%=      5-min Rain = 0
KMD1 150045Z 19008KT 39/12 A2987 RMK A01 T03900117  RH  020%=      5-min Rain = 0
KMD1 150046Z 19007KT 39/12 A2987 RMK A01 T03900117  RH  020%=      5-min Rain = 0
KMD1 150047Z 19008KT 39/12 A2987 RMK A01 T03900118  RH  020%=      5-min Rain = 0
KMD1 150048Z 18009KT 39/12 A2987 RMK A01 T03890118  RH  020%=      5-min Rain = 0
KMD1 150049Z 18009KT 39/12 A2987 RMK A01 T03890119  RH  020%=      5-min Rain = 0
KMD1 150050Z 18008KT 39/12 A2987 RMK A01 T03880119  RH  020%=      5-min Rain = 0
KMD1 150051Z 18007KT 39/12 A2987 RMK A01 T03880120  RH  020%=      5-min Rain = 0
KMD1 150052Z 18007KT 39/12 A2987 RMK A01 T03870120  RH  020%=      5-min Rain = 0
KMD1 150053Z 19008KT 39/12 A2987 RMK A01 T03870120  RH  020%=      5-min Rain = 0
KMD1 150054Z 19009KT 39/12 A2987 RMK A01 T03870120  RH  020%=      5-min Rain = 0
KMD1 150055Z 19009KT 39/12 A2988 RMK A01 T03860120  RH  020%=      5-min Rain = 0
KMD1 150056Z 18009KT 39/12 A2988 RMK A01 T03860120  RH  021%=      5-min Rain = 0
KMD1 150057Z 18010KT 39/12 A2988 RMK A01 T03860121  RH  021%=      5-min Rain = 0
KMD1 150058Z 19009KT 39/12 A2988 RMK A01 T03860121  RH  021%=      5-min Rain = 0
KMD1 150059Z 19008KT 39/12 A2988 RMK A01 T03850121  RH  021%=      5-min Rain = 0
KMD1 150100Z 19007KT 38/12 A2988 RMK A01 T03840121  RH  021%=      5-min Rain = 0
KMD1 150101Z 19008KT 38/12 A2988 RMK A01 T03830121  RH  021%=      5-min Rain = 0
KMD1 150102Z 19007KT 38/12 A2988 RMK A01 T03820121  RH  021%=      5-min Rain = 0
KMD1 150103Z 19006KT 38/12 A2988 RMK A01 T03820122  RH  021%=      5-min Rain = 0
KMD1 150104Z 19006KT 38/12 A2988 RMK A01 T03810121  RH  021%=      5-min Rain = 0
KMD1 150105Z 19006KT 38/12 A2988 RMK A01 T03810121  RH  021%=      5-min Rain = 0
KMD1 150106Z 19007KT 38/12 A2988 RMK A01 T03810121  RH  021%=      5-min Rain = 0
KMD1 150107Z 19007KT 38/12 A2988 RMK A01 T03800121  RH  021%=      5-min Rain = 0
KMD1 150108Z 19006KT 38/12 A2988 RMK A01 T03800121  RH  021%=      5-min Rain = 0
KMD1 150109Z 20006KT 38/12 A2988 RMK A01 T03790121  RH  021%=      5-min Rain = 0
KMD1 150110Z 19006KT 38/12 A2988 RMK A01 T03780121  RH  022%=      5-min Rain = 0
KMD1 150111Z 19006KT 38/12 A2988 RMK A01 T03780122  RH  022%=      5-min Rain = 0
KMD1 150112Z 19007KT 38/12 A2988 RMK A01 T03770122  RH  022%=      5-min Rain = 0
KMD1 150113Z 19006KT 38/12 A2988 RMK A01 T03770121  RH  022%=      5-min Rain = 0
KMD1 150114Z 19007KT 38/12 A2988 RMK A01 T03770121  RH  022%=      5-min Rain = 0
KMD1 150115Z 19006KT 38/12 A2988 RMK A01 T03760122  RH  022%=      5-min Rain = 0
KMD1 150116Z 19006KT 38/12 A2988 RMK A01 T03750121  RH  022%=      5-min Rain = 0
KMD1 150117Z 19007KT 37/12 A2988 RMK A01 T03740121  RH  022%=      5-min Rain = 0
KMD1 150118Z 19007KT 37/12 A2988 RMK A01 T03740121  RH  022%=      5-min Rain = 0
KMD1 150119Z 19005KT 37/12 A2988 RMK A01 T03730121  RH  022%=      5-min Rain = 0
KMD1 150120Z 19005KT 37/12 A2989 RMK A01 T03720122  RH  022%=      5-min Rain = 0
KMD1 150121Z 19006KT 37/12 A2989 RMK A01 T03720122  RH  022%=      5-min Rain = 0
KMD1 150122Z 19005KT 37/12 A2988 RMK A01 T03700121  RH  022%=      5-min Rain = 0
KMD1 150123Z 19004KT 37/12 A2989 RMK A01 T03700122  RH  023%=      5-min Rain = 0
KMD1 150124Z 19005KT 37/12 A2989 RMK A01 T03690122  RH  023%=      5-min Rain = 0
KMD1 150125Z 19005KT 37/12 A2989 RMK A01 T03680122  RH  023%=      5-min Rain = 0
KMD1 150126Z 19005KT 37/12 A2989 RMK A01 T03670122  RH  023%=      5-min Rain = 0
KMD1 150127Z 20004KT 37/12 A2989 RMK A01 T03660122  RH  023%=      5-min Rain = 0
KMD1 150128Z 20004KT 37/12 A2989 RMK A01 T03660122  RH  023%=      5-min Rain = 0
KMD1 150129Z 20004KT 37/12 A2989 RMK A01 T03650122  RH  023%=      5-min Rain = 0
KMD1 150130Z 20004KT 37/12 A2989 RMK A01 T03650123  RH  023%=      5-min Rain = 0
KMD1 150131Z 20004KT 36/12 A2989 RMK A01 T03640123  RH  023%=      5-min Rain = 0
KMD1 150132Z 20003KT 36/12 A2989 RMK A01 T03640123  RH  024%=      5-min Rain = 0
KMD1 150133Z 20004KT 36/12 A2989 RMK A01 T03630123  RH  024%=      5-min Rain = 0
KMD1 150134Z 20004KT 36/12 A2989 RMK A01 T03620122  RH  024%=      5-min Rain = 0
KMD1 150135Z 20004KT 36/12 A2989 RMK A01 T03620123  RH  024%=      5-min Rain = 0
KMD1 150136Z 20004KT 36/12 A2989 RMK A01 T03610123  RH  024%=      5-min Rain = 0
KMD1 150137Z 20004KT 36/12 A2989 RMK A01 T03600122  RH  024%=      5-min Rain = 0
KMD1 150138Z 20004KT 36/12 A2989 RMK A01 T03590122  RH  024%=      5-min Rain = 0
KMD1 150139Z 20004KT 36/12 A2989 RMK A01 T03590122  RH  024%=      5-min Rain = 0
KMD1 150140Z 20004KT 36/12 A2989 RMK A01 T03590122  RH  024%=      5-min Rain = 0
KMD1 150141Z 20004KT 36/12 A2989 RMK A01 T03580122  RH  024%=      5-min Rain = 0
KMD1 150142Z 20004KT 36/12 A2989 RMK A01 T03580122  RH  024%=      5-min Rain = 0
KMD1 150143Z 19004KT 36/12 A2989 RMK A01 T03570122  RH  024%=      5-min Rain = 0
KMD1 150144Z 20004KT 36/12 A2989 RMK A01 T03560122  RH  024%=      5-min Rain = 0
KMD1 150145Z 19004KT 36/12 A2989 RMK A01 T03550122  RH  024%=      5-min Rain = 0
KMD1 150146Z 19004KT 36/12 A2989 RMK A01 T03550122  RH  025%=      5-min Rain = 0
KMD1 150147Z 19004KT 35/12 A2989 RMK A01 T03540122  RH  025%=      5-min Rain = 0
KMD1 150148Z 19003KT 35/12 A2989 RMK A01 T03540122  RH  025%=      5-min Rain = 0
KMD1 150149Z 19004KT 35/12 A2989 RMK A01 T03540122  RH  025%=      5-min Rain = 0
KMD1 150150Z 19004KT 35/12 A2989 RMK A01 T03530122  RH  025%=      5-min Rain = 0
KMD1 150151Z 19004KT 35/12 A2989 RMK A01 T03520122  RH  025%=      5-min Rain = 0
KMD1 150152Z 19004KT 35/12 A2989 RMK A01 T03520122  RH  025%=      5-min Rain = 0
KMD1 150153Z 19003KT 35/12 A2989 RMK A01 T03510122  RH  025%=      5-min Rain = 0
KMD1 150154Z 19004KT 35/12 A2989 RMK A01 T03500122  RH  025%=      5-min Rain = 0
KMD1 150155Z 19004KT 35/12 A2989 RMK A01 T03500122  RH  025%=      5-min Rain = 0
KMD1 150156Z 20004KT 35/12 A2989 RMK A01 T03500122  RH  025%=      5-min Rain = 0
KMD1 150157Z 20004KT 35/12 A2989 RMK A01 T03500122  RH  025%=      5-min Rain = 0
KMD1 150158Z 20004KT 35/12 A2989 RMK A01 T03490122  RH  025%=      5-min Rain = 0
KMD1 150159Z 20004KT 35/12 A2989 RMK A01 T03490122  RH  025%=      5-min Rain = 0
KMD1 150200Z 20004KT 35/12 A2989 RMK A01 T03490122  RH  025%=      5-min Rain = 0
KMD1 150201Z 20005KT 35/12 A2989 RMK A01 T03480122  RH  026%=      5-min Rain = 0
KMD1 150202Z 20004KT 35/12 A2989 RMK A01 T03480122  RH  026%=      5-min Rain = 0
KMD1 150203Z 20004KT 35/12 A2989 RMK A01 T03480122  RH  026%=      5-min Rain = 0
KMD1 150204Z 20005KT 35/12 A2989 RMK A01 T03480122  RH  026%=      5-min Rain = 0
KMD1 150205Z 20004KT 35/12 A2989 RMK A01 T03470123  RH  026%=      5-min Rain = 0
KMD1 150206Z 19005KT 35/12 A2989 RMK A01 T03470123  RH  026%=      5-min Rain = 0
KMD1 150207Z 20004KT 35/12 A2989 RMK A01 T03470123  RH  026%=      5-min Rain = 0
KMD1 150208Z 19005KT 35/12 A299 RMK A01 T03470123  RH  026%=      5-min Rain = 0
KMD1 150209Z 20005KT 35/12 A299 RMK A01 T03460123  RH  026%=      5-min Rain = 0
KMD1 150210Z 19004KT 35/12 A299 RMK A01 T03450123  RH  026%=      5-min Rain = 0
KMD1 150211Z 19004KT 34/12 A299 RMK A01 T03440123  RH  026%=      5-min Rain = 0
KMD1 150212Z 19004KT 34/12 A299 RMK A01 T03440123  RH  026%=      5-min Rain = 0
KMD1 150213Z 19004KT 34/12 A299 RMK A01 T03430123  RH  026%=      5-min Rain = 0
KMD1 150214Z 20004KT 34/12 A299 RMK A01 T03430123  RH  026%=      5-min Rain = 0
KMD1 150215Z 20004KT 34/12 A299 RMK A01 T03420123  RH  027%=      5-min Rain = 0
KMD1 150216Z 20004KT 34/12 A299 RMK A01 T03410123  RH  027%=      5-min Rain = 0
KMD1 150217Z 21004KT 34/12 A299 RMK A01 T03400124  RH  027%=      5-min Rain = 0
KMD1 150218Z 21003KT 34/12 A299 RMK A01 T03390124  RH  027%=      5-min Rain = 0
KMD1 150219Z 21003KT 34/13 A299 RMK A01 T03380125  RH  027%=      5-min Rain = 0
KMD1 150220Z 20005KT 34/12 A299 RMK A01 T03360124  RH  028%=      5-min Rain = 0
KMD1 150221Z 20005KT 34/12 A299 RMK A01 T03360124  RH  028%=      5-min Rain = 0
KMD1 150222Z 19004KT 34/12 A299 RMK A01 T03350124  RH  028%=      5-min Rain = 0
KMD1 150223Z 19004KT 34/12 A299 RMK A01 T03350124  RH  028%=      5-min Rain = 0
KMD1 150224Z 19005KT 34/12 A299 RMK A01 T03350124  RH  028%=      5-min Rain = 0
KMD1 150225Z 20005KT 34/12 A299 RMK A01 T03350124  RH  028%=      5-min Rain = 0
KMD1 150226Z 19004KT 33/12 A299 RMK A01 T03340123  RH  028%=      5-min Rain = 0
KMD1 150227Z 19004KT 33/12 A299 RMK A01 T03340123  RH  028%=      5-min Rain = 0
KMD1 150228Z 19005KT 33/12 A299 RMK A01 T03340123  RH  028%=      5-min Rain = 0
KMD1 150229Z 19004KT 33/12 A299 RMK A01 T03340123  RH  028%=      5-min Rain = 0
KMD1 150230Z 19004KT 33/12 A299 RMK A01 T03340123  RH  028%=      5-min Rain = 0
KMD1 150231Z 20004KT 33/12 A299 RMK A01 T03340123  RH  028%=      5-min Rain = 0
KMD1 150232Z 20004KT 33/12 A299 RMK A01 T03340123  RH  028%=      5-min Rain = 0
KMD1 150233Z 20004KT 33/12 A299 RMK A01 T03330123  RH  028%=      5-min Rain = 0
KMD1 150234Z 20005KT 33/12 A299 RMK A01 T03330124  RH  028%=      5-min Rain = 0
KMD1 150235Z 19005KT 33/12 A299 RMK A01 T03320124  RH  028%=      5-min Rain = 0
KMD1 150236Z 20005KT 33/12 A299 RMK A01 T03320124  RH  028%=      5-min Rain = 0
KMD1 150237Z 20005KT 33/12 A299 RMK A01 T03320124  RH  028%=      5-min Rain = 0
KMD1 150238Z 19005KT 33/12 A2991 RMK A01 T03320124  RH  028%=      5-min Rain = 0
KMD1 150239Z 20005KT 33/12 A2991 RMK A01 T03320124  RH  028%=      5-min Rain = 0
KMD1 150240Z 19005KT 33/12 A2991 RMK A01 T03310124  RH  028%=      5-min Rain = 0
KMD1 150241Z 19005KT 33/12 A2991 RMK A01 T03310124  RH  028%=      5-min Rain = 0
KMD1 150242Z 19006KT 33/12 A2991 RMK A01 T03310124  RH  029%=      5-min Rain = 0
KMD1 150243Z 19005KT 33/12 A2991 RMK A01 T03300124  RH  029%=      5-min Rain = 0
KMD1 150244Z 20005KT 33/13 A2991 RMK A01 T03310125  RH  029%=      5-min Rain = 0
KMD1 150245Z 19005KT 33/13 A2991 RMK A01 T03300125  RH  029%=      5-min Rain = 0
KMD1 150246Z 19005KT 33/12 A2991 RMK A01 T03290124  RH  029%=      5-min Rain = 0
KMD1 150247Z 20004KT 33/13 A2991 RMK A01 T03290125  RH  029%=      5-min Rain = 0
KMD1 150248Z 19005KT 33/13 A2991 RMK A01 T03290125  RH  029%=      5-min Rain = 0
KMD1 150249Z 19005KT 33/13 A2991 RMK A01 T03290125  RH  029%=      5-min Rain = 0
KMD1 150250Z 19006KT 33/13 A2991 RMK A01 T03280125  RH  029%=      5-min Rain = 0
KMD1 150251Z 19007KT 33/13 A2991 RMK A01 T03280125  RH  029%=      5-min Rain = 0
KMD1 150252Z 19007KT 33/12 A2991 RMK A01 T03280124  RH  029%=      5-min Rain = 0
KMD1 150253Z 19006KT 33/13 A2991 RMK A01 T03290125  RH  029%=      5-min Rain = 0
KMD1 150254Z 19006KT 33/13 A2991 RMK A01 T03290125  RH  029%=      5-min Rain = 0
KMD1 150255Z 19005KT 33/13 A2991 RMK A01 T03290125  RH  029%=      5-min Rain = 0
KMD1 150256Z 19005KT 33/13 A2991 RMK A01 T03280126  RH  029%=      5-min Rain = 0
KMD1 150257Z 20005KT 33/13 A2991 RMK A01 T03270125  RH  029%=      5-min Rain = 0
KMD1 150258Z 19006KT 33/13 A2991 RMK A01 T03270126  RH  029%=      5-min Rain = 0
KMD1 150259Z 20006KT 33/13 A2991 RMK A01 T03270125  RH  029%=      5-min Rain = 0
KMD1 150300Z 20005KT 33/13 A2991 RMK A01 T03260125  RH  029%=      5-min Rain = 0
KMD1 150301Z 20005KT 33/13 A2991 RMK A01 T03260126  RH  030%=      5-min Rain = 0
KMD1 150302Z 20005KT 33/13 A2991 RMK A01 T03250126  RH  030%=      5-min Rain = 0
KMD1 150303Z 20005KT 32/13 A2991 RMK A01 T03240126  RH  030%=      5-min Rain = 0
KMD1 150304Z 20005KT 32/13 A2991 RMK A01 T03240126  RH  030%=      5-min Rain = 0
KMD1 150305Z 20005KT 32/13 A2991 RMK A01 T03230126  RH  030%=      5-min Rain = 0
KMD1 150306Z 20005KT 32/13 A2992 RMK A01 T03230126  RH  030%=      5-min Rain = 0
KMD1 150307Z 20005KT 32/13 A2991 RMK A01 T03230127  RH  030%=      5-min Rain = 0
KMD1 150308Z 20005KT 32/13 A2991 RMK A01 T03220127  RH  030%=      5-min Rain = 0
KMD1 150309Z 21005KT 32/13 A2991 RMK A01 T03210127  RH  031%=      5-min Rain = 0
KMD1 150310Z 20005KT 32/13 A2991 RMK A01 T03210127  RH  031%=      5-min Rain = 0
KMD1 150311Z 20006KT 32/13 A2991 RMK A01 T03200127  RH  031%=      5-min Rain = 0
KMD1 150312Z 21005KT 32/13 A2992 RMK A01 T03190127  RH  031%=      5-min Rain = 0
KMD1 150313Z 20006KT 32/13 A2992 RMK A01 T03190128  RH  031%=      5-min Rain = 0
KMD1 150314Z 20005KT 32/13 A2992 RMK A01 T03180128  RH  031%=      5-min Rain = 0
KMD1 150315Z 20005KT 32/13 A2992 RMK A01 T03180128  RH  031%=      5-min Rain = 0
KMD1 150316Z 20005KT 32/13 A2992 RMK A01 T03180128  RH  032%=      5-min Rain = 0
KMD1 150317Z 20005KT 32/13 A2992 RMK A01 T03180129  RH  032%=      5-min Rain = 0
KMD1 150318Z 20005KT 32/13 A2992 RMK A01 T03180129  RH  032%=      5-min Rain = 0
KMD1 150319Z 20005KT 32/13 A2992 RMK A01 T03170129  RH  032%=      5-min Rain = 0
KMD1 150320Z 20005KT 32/13 A2992 RMK A01 T03170130  RH  032%=      5-min Rain = 0
KMD1 150321Z 20005KT 32/13 A2992 RMK A01 T03170130  RH  032%=      5-min Rain = 0
KMD1 150322Z 19005KT 32/13 A2992 RMK A01 T03170131  RH  032%=      5-min Rain = 0
KMD1 150323Z 20005KT 32/13 A2992 RMK A01 T03160131  RH  032%=      5-min Rain = 0
KMD1 150324Z 19005KT 32/13 A2992 RMK A01 T03160131  RH  032%=      5-min Rain = 0
KMD1 150325Z 20005KT 32/13 A2992 RMK A01 T03160132  RH  033%=      5-min Rain = 0
KMD1 150326Z 20005KT 32/13 A2992 RMK A01 T03160132  RH  033%=      5-min Rain = 0
KMD1 150327Z 20005KT 32/13 A2992 RMK A01 T03160133  RH  033%=      5-min Rain = 0
KMD1 150328Z 20005KT 32/13 A2992 RMK A01 T03160132  RH  033%=      5-min Rain = 0
KMD1 150329Z 21005KT 32/13 A2992 RMK A01 T03150132  RH  033%=      5-min Rain = 0
KMD1 150330Z 21005KT 31/13 A2992 RMK A01 T03140133  RH  033%=      5-min Rain = 0
KMD1 150331Z 21005KT 31/13 A2992 RMK A01 T03130133  RH  033%=      5-min Rain = 0
KMD1 150332Z 21005KT 31/13 A2992 RMK A01 T03120133  RH  034%=      5-min Rain = 0
KMD1 150333Z 21005KT 31/13 A2992 RMK A01 T03120133  RH  034%=      5-min Rain = 0
KMD1 150334Z 21005KT 31/13 A2992 RMK A01 T03120133  RH  034%=      5-min Rain = 0
KMD1 150335Z 21004KT 31/13 A2992 RMK A01 T03110133  RH  034%=      5-min Rain = 0
KMD1 150336Z 21005KT 31/13 A2992 RMK A01 T03110133  RH  034%=      5-min Rain = 0
KMD1 150337Z 20006KT 31/13 A2992 RMK A01 T03100133  RH  034%=      5-min Rain = 0
KMD1 150338Z 20006KT 31/13 A2992 RMK A01 T03100133  RH  034%=      5-min Rain = 0
KMD1 150339Z 20006KT 31/13 A2992 RMK A01 T03100133  RH  034%=      5-min Rain = 0
KMD1 150340Z 20006KT 31/13 A2992 RMK A01 T03100133  RH  034%=      5-min Rain = 0
KMD1 150341Z 20005KT 31/13 A2992 RMK A01 T03100133  RH  034%=      5-min Rain = 0
KMD1 150342Z 20006KT 31/13 A2992 RMK A01 T03090133  RH  034%=      5-min Rain = 0
KMD1 150343Z 21006KT 31/13 A2992 RMK A01 T03090134  RH  034%=      5-min Rain = 0
KMD1 150344Z 20006KT 31/13 A2992 RMK A01 T03090134  RH  034%=      5-min Rain = 0
KMD1 150345Z 20006KT 31/13 A2992 RMK A01 T03090134  RH  034%=      5-min Rain = 0
KMD1 150346Z 20006KT 31/13 A2992 RMK A01 T03080134  RH  035%=      5-min Rain = 0
KMD1 150347Z 20006KT 31/14 A2992 RMK A01 T03080135  RH  035%=      5-min Rain = 0
KMD1 150348Z 20005KT 31/14 A2992 RMK A01 T03090135  RH  035%=      5-min Rain = 0
KMD1 150349Z 20006KT 31/14 A2992 RMK A01 T03090136  RH  035%=      5-min Rain = 0
KMD1 150350Z 20006KT 31/14 A2992 RMK A01 T03080136  RH  035%=      5-min Rain = 0
KMD1 150351Z 20006KT 31/14 A2992 RMK A01 T03080136  RH  035%=      5-min Rain = 0
KMD1 150352Z 20006KT 31/14 A2992 RMK A01 T03090136  RH  035%=      5-min Rain = 0
KMD1 150353Z 20007KT 31/14 A2992 RMK A01 T03090136  RH  035%=      5-min Rain = 0
KMD1 150354Z 20006KT 31/14 A2992 RMK A01 T03090136  RH  035%=      5-min Rain = 0
KMD1 150355Z 20006KT 31/14 A2992 RMK A01 T03090137  RH  035%=      5-min Rain = 0
KMD1 150356Z 20006KT 31/14 A2992 RMK A01 T03100137  RH  035%=      5-min Rain = 0
KMD1 150357Z 20006KT 31/14 A2992 RMK A01 T03090137  RH  035%=      5-min Rain = 0
KMD1 150358Z 20008KT 31/14 A2992 RMK A01 T03090137  RH  035%=      5-min Rain = 0
KMD1 150359Z 19007KT 31/14 A2992 RMK A01 T03100137  RH  035%=      5-min Rain = 0
KMD1 150400Z 20006KT 31/14 A2992 RMK A01 T03110137  RH  035%=      5-min Rain = 0
KMD1 150401Z 19006KT 31/14 A2992 RMK A01 T03110137  RH  035%=      5-min Rain = 0
KMD1 150402Z 20005KT 31/14 A2992 RMK A01 T03110138  RH  035%=      5-min Rain = 0
KMD1 150403Z 20007KT 31/14 A2992 RMK A01 T03110138  RH  035%=      5-min Rain = 0
KMD1 150404Z 20006KT 31/14 A2992 RMK A01 T03100138  RH  035%=      5-min Rain = 0
KMD1 150405Z 20006KT 31/14 A2992 RMK A01 T03100138  RH  035%=      5-min Rain = 0
KMD1 150406Z 20005KT 31/14 A2992 RMK A01 T03100139  RH  035%=      5-min Rain = 0
KMD1 150407Z 20007KT 31/14 A2992 RMK A01 T03100138  RH  035%=      5-min Rain = 0
KMD1 150408Z 20007KT 31/14 A2992 RMK A01 T03100138  RH  035%=      5-min Rain = 0
KMD1 150409Z 20006KT 31/14 A2992 RMK A01 T03100138  RH  035%=      5-min Rain = 0
KMD1 150410Z 19006KT 31/14 A2992 RMK A01 T03100138  RH  035%=      5-min Rain = 0
KMD1 150411Z 20006KT 31/14 A2992 RMK A01 T03100139  RH  035%=      5-min Rain = 0
KMD1 150412Z 20006KT 31/14 A2992 RMK A01 T03100139  RH  035%=      5-min Rain = 0
KMD1 150413Z 20006KT 31/14 A2992 RMK A01 T03100139  RH  035%=      5-min Rain = 0
KMD1 150414Z 19006KT 31/14 A2992 RMK A01 T03100139  RH  035%=      5-min Rain = 0
KMD1 150415Z 20007KT 31/14 A2992 RMK A01 T03100139  RH  035%=      5-min Rain = 0
KMD1 150416Z 19007KT 31/14 A2992 RMK A01 T03110139  RH  035%=      5-min Rain = 0
KMD1 150417Z 20006KT 31/14 A2992 RMK A01 T03110139  RH  035%=      5-min Rain = 0
KMD1 150418Z 19006G11KT 31/14 A2992 RMK A01 T03110139  RH  035%=      5-min Rain = 0
KMD1 150419Z 19006KT 31/14 A2992 RMK A01 T03100139  RH  035%=      5-min Rain = 0
KMD1 150420Z 19006G11KT 31/14 A2992 RMK A01 T03110139  RH  035%=      5-min Rain = 0
KMD1 150421Z 19007KT 31/14 A2992 RMK A01 T03110139  RH  035%=      5-min Rain = 0
KMD1 150422Z 19007KT 31/14 A2992 RMK A01 T03110139  RH  035%=      5-min Rain = 0
KMD1 150423Z 20006KT 31/14 A2992 RMK A01 T03110139  RH  035%=      5-min Rain = 0
KMD1 150424Z 19006KT 31/14 A2992 RMK A01 T03120139  RH  035%=      5-min Rain = 0
KMD1 150425Z 20006KT 31/14 A2992 RMK A01 T03120139  RH  035%=      5-min Rain = 0
KMD1 150426Z 20007KT 31/14 A2992 RMK A01 T03110139  RH  035%=      5-min Rain = 0
KMD1 150427Z 20006KT 31/14 A2992 RMK A01 T03120139  RH  035%=      5-min Rain = 0
KMD1 150428Z 20005KT 31/14 A2992 RMK A01 T03120139  RH  035%=      5-min Rain = 0
KMD1 150429Z 19006KT 31/14 A2992 RMK A01 T03120139  RH  035%=      5-min Rain = 0
KMD1 150430Z 19006KT 31/14 A2992 RMK A01 T03110139  RH  035%=      5-min Rain = 0
KMD1 150431Z 20005KT 31/14 A2992 RMK A01 T03110140  RH  035%=      5-min Rain = 0
KMD1 150432Z 19005KT 31/14 A2992 RMK A01 T03110139  RH  035%=      5-min Rain = 0
KMD1 150433Z 20006KT 31/14 A2992 RMK A01 T03100139  RH  035%=      5-min Rain = 0
KMD1 150434Z 20005KT 31/14 A2992 RMK A01 T03090139  RH  035%=      5-min Rain = 0
KMD1 150435Z 20005KT 31/14 A2992 RMK A01 T03090139  RH  036%=      5-min Rain = 0
KMD1 150436Z 20006KT 31/14 A2992 RMK A01 T03080139  RH  036%=      5-min Rain = 0
KMD1 150437Z 20006KT 31/14 A2992 RMK A01 T03080139  RH  036%=      5-min Rain = 0
KMD1 150438Z 20006KT 31/14 A2992 RMK A01 T03080139  RH  036%=      5-min Rain = 0
KMD1 150439Z 20006KT 31/14 A2992 RMK A01 T03080139  RH  036%=      5-min Rain = 0
KMD1 150440Z 20005KT 31/14 A2992 RMK A01 T03080139  RH  036%=      5-min Rain = 0
KMD1 150441Z 20006KT 31/14 A2993 RMK A01 T03080139  RH  036%=      5-min Rain = 0
KMD1 150442Z 20005KT 31/14 A2993 RMK A01 T03070139  RH  036%=      5-min Rain = 0
KMD1 150443Z 20007KT 31/14 A2993 RMK A01 T03070139  RH  036%=      5-min Rain = 0
KMD1 150444Z 19006KT 31/14 A2993 RMK A01 T03060139  RH  036%=      5-min Rain = 0
KMD1 150445Z 20006KT 31/14 A2993 RMK A01 T03060139  RH  036%=      5-min Rain = 0
KMD1 150446Z 20005KT 31/14 A2993 RMK A01 T03060139  RH  036%=      5-min Rain = 0
KMD1 150447Z 20005KT 31/14 A2993 RMK A01 T03060139  RH  036%=      5-min Rain = 0
KMD1 150448Z 20006KT 31/14 A2993 RMK A01 T03050139  RH  036%=      5-min Rain = 0
KMD1 150449Z 19006KT 31/14 A2993 RMK A01 T03050139  RH  036%=      5-min Rain = 0
KMD1 150450Z 20005KT 31/14 A2993 RMK A01 T03050139  RH  036%=      5-min Rain = 0
KMD1 150451Z 19006KT 31/14 A2993 RMK A01 T03050139  RH  036%=      5-min Rain = 0
KMD1 150452Z 20006KT 31/14 A2993 RMK A01 T03050138  RH  036%=      5-min Rain = 0
KMD1 150453Z 20006KT 31/14 A2993 RMK A01 T03050138  RH  036%=      5-min Rain = 0
KMD1 150454Z 20006KT 31/14 A2993 RMK A01 T03050138  RH  036%=      5-min Rain = 0
KMD1 150455Z 19006KT 31/14 A2993 RMK A01 T03050138  RH  036%=      5-min Rain = 0
KMD1 150456Z 20005KT 31/14 A2993 RMK A01 T03050138  RH  036%=      5-min Rain = 0
KMD1 150457Z 20005KT 31/14 A2993 RMK A01 T03050138  RH  036%=      5-min Rain = 0
KMD1 150458Z 19006KT 31/14 A2993 RMK A01 T03050138  RH  036%=      5-min Rain = 0
KMD1 150459Z 20006KT 30/14 A2993 RMK A01 T03040138  RH  036%=      5-min Rain = 0

Page generated in 0.1203 seconds.